<?xml version="1.0" encoding="UTF-8" standalone="no" ?>
<gpx xmlns="http://www.topografix.com/GPX/1/1" xmlns:xsi="http://www.w3.org/2001/XMLSchema-instance" xsi:schemaLocation="http://www.topografix.com/GPX/1/1 http://www.topografix.com/GPX/1/1/gpx.xsd" version="1.1" creator="VisuGPX - https://www.visugpx.com">
  <metadata>
    <name>ormes</name>
    <desc><![CDATA[départ centre de loisir saran]]></desc>
  </metadata>
  <trk>
    <name><![CDATA[ormes]]></name>
    <trkseg>
      <trkpt lat="47.95863" lon="1.89388">
        <ele>136.327</ele>
        <time>2012-01-29T09:18:05Z</time>
      </trkpt>
      <trkpt lat="47.95868" lon="1.89383">
        <ele>136.426</ele>
        <time>2012-01-29T09:18:09Z</time>
      </trkpt>
      <trkpt lat="47.95907" lon="1.89367">
        <ele>136.4</ele>
        <time>2012-01-29T09:18:23Z</time>
      </trkpt>
      <trkpt lat="47.95926" lon="1.89368">
        <ele>136.054</ele>
        <time>2012-01-29T09:18:30Z</time>
      </trkpt>
      <trkpt lat="47.95938" lon="1.89364">
        <ele>135.912</ele>
        <time>2012-01-29T09:18:35Z</time>
      </trkpt>
      <trkpt lat="47.95973" lon="1.8935">
        <ele>136.013</ele>
        <time>2012-01-29T09:18:48Z</time>
      </trkpt>
      <trkpt lat="47.96013" lon="1.89341">
        <ele>134.767</ele>
        <time>2012-01-29T09:19:04Z</time>
      </trkpt>
      <trkpt lat="47.96043" lon="1.89336">
        <ele>134.803</ele>
        <time>2012-01-29T09:19:15Z</time>
      </trkpt>
      <trkpt lat="47.96066" lon="1.89318">
        <ele>134.313</ele>
        <time>2012-01-29T09:19:25Z</time>
      </trkpt>
      <trkpt lat="47.9607" lon="1.89313">
        <ele>134.351</ele>
        <time>2012-01-29T09:19:27Z</time>
      </trkpt>
      <trkpt lat="47.96101" lon="1.89306">
        <ele>134.032</ele>
        <time>2012-01-29T09:19:37Z</time>
      </trkpt>
      <trkpt lat="47.96128" lon="1.89303">
        <ele>133.608</ele>
        <time>2012-01-29T09:19:45Z</time>
      </trkpt>
      <trkpt lat="47.96172" lon="1.89284">
        <ele>133.525</ele>
        <time>2012-01-29T09:19:56Z</time>
      </trkpt>
      <trkpt lat="47.96181" lon="1.89283">
        <ele>133.374</ele>
        <time>2012-01-29T09:19:58Z</time>
      </trkpt>
      <trkpt lat="47.96197" lon="1.89305">
        <ele>133.16</ele>
        <time>2012-01-29T09:20:06Z</time>
      </trkpt>
      <trkpt lat="47.9621" lon="1.89328">
        <ele>132.816</ele>
        <time>2012-01-29T09:20:13Z</time>
      </trkpt>
      <trkpt lat="47.96215" lon="1.89334">
        <ele>132.569</ele>
        <time>2012-01-29T09:20:16Z</time>
      </trkpt>
      <trkpt lat="47.9622" lon="1.8935">
        <ele>132.469</ele>
        <time>2012-01-29T09:20:23Z</time>
      </trkpt>
      <trkpt lat="47.96222" lon="1.89357">
        <ele>132.308</ele>
        <time>2012-01-29T09:20:39Z</time>
      </trkpt>
      <trkpt lat="47.96222" lon="1.89359">
        <ele>131.483</ele>
        <time>2012-01-29T09:21:22Z</time>
      </trkpt>
      <trkpt lat="47.96199" lon="1.89393">
        <ele>132.485</ele>
        <time>2012-01-29T09:21:35Z</time>
      </trkpt>
      <trkpt lat="47.96179" lon="1.89418">
        <ele>132.611</ele>
        <time>2012-01-29T09:21:43Z</time>
      </trkpt>
      <trkpt lat="47.9618" lon="1.89423">
        <ele>132.553</ele>
        <time>2012-01-29T09:21:47Z</time>
      </trkpt>
      <trkpt lat="47.96185" lon="1.89425">
        <ele>132.322</ele>
        <time>2012-01-29T09:21:50Z</time>
      </trkpt>
      <trkpt lat="47.96228" lon="1.89431">
        <ele>131.919</ele>
        <time>2012-01-29T09:22:05Z</time>
      </trkpt>
      <trkpt lat="47.96254" lon="1.89429">
        <ele>132.035</ele>
        <time>2012-01-29T09:22:15Z</time>
      </trkpt>
      <trkpt lat="47.96283" lon="1.89432">
        <ele>131.525</ele>
        <time>2012-01-29T09:22:25Z</time>
      </trkpt>
      <trkpt lat="47.96302" lon="1.89434">
        <ele>131.163</ele>
        <time>2012-01-29T09:22:32Z</time>
      </trkpt>
      <trkpt lat="47.96327" lon="1.89438">
        <ele>131.251</ele>
        <time>2012-01-29T09:22:42Z</time>
      </trkpt>
      <trkpt lat="47.96351" lon="1.89438">
        <ele>131.412</ele>
        <time>2012-01-29T09:22:53Z</time>
      </trkpt>
      <trkpt lat="47.96352" lon="1.89438">
        <ele>131.422</ele>
        <time>2012-01-29T09:22:54Z</time>
      </trkpt>
      <trkpt lat="47.96364" lon="1.89441">
        <ele>131.031</ele>
        <time>2012-01-29T09:23:00Z</time>
      </trkpt>
      <trkpt lat="47.96402" lon="1.89442">
        <ele>130.471</ele>
        <time>2012-01-29T09:23:13Z</time>
      </trkpt>
      <trkpt lat="47.96407" lon="1.8944">
        <ele>130.902</ele>
        <time>2012-01-29T09:23:15Z</time>
      </trkpt>
      <trkpt lat="47.96429" lon="1.89448">
        <ele>130.119</ele>
        <time>2012-01-29T09:23:28Z</time>
      </trkpt>
      <trkpt lat="47.96432" lon="1.89449">
        <ele>129.99</ele>
        <time>2012-01-29T09:23:49Z</time>
      </trkpt>
      <trkpt lat="47.9644" lon="1.89452">
        <ele>129.906</ele>
        <time>2012-01-29T09:23:58Z</time>
      </trkpt>
      <trkpt lat="47.96457" lon="1.8945">
        <ele>129.535</ele>
        <time>2012-01-29T09:24:15Z</time>
      </trkpt>
      <trkpt lat="47.96467" lon="1.89454">
        <ele>129.363</ele>
        <time>2012-01-29T09:24:34Z</time>
      </trkpt>
      <trkpt lat="47.96477" lon="1.89454">
        <ele>129.51</ele>
        <time>2012-01-29T09:24:41Z</time>
      </trkpt>
      <trkpt lat="47.96489" lon="1.89455">
        <ele>129.737</ele>
        <time>2012-01-29T09:24:48Z</time>
      </trkpt>
      <trkpt lat="47.96492" lon="1.89456">
        <ele>129.691</ele>
        <time>2012-01-29T09:24:50Z</time>
      </trkpt>
      <trkpt lat="47.96497" lon="1.89453">
        <ele>129.528</ele>
        <time>2012-01-29T09:24:55Z</time>
      </trkpt>
      <trkpt lat="47.96532" lon="1.89456">
        <ele>128.794</ele>
        <time>2012-01-29T09:25:10Z</time>
      </trkpt>
      <trkpt lat="47.96559" lon="1.89462">
        <ele>128.143</ele>
        <time>2012-01-29T09:25:20Z</time>
      </trkpt>
      <trkpt lat="47.96567" lon="1.8946">
        <ele>127.723</ele>
        <time>2012-01-29T09:25:26Z</time>
      </trkpt>
      <trkpt lat="47.96574" lon="1.89447">
        <ele>128.252</ele>
        <time>2012-01-29T09:25:43Z</time>
      </trkpt>
      <trkpt lat="47.96575" lon="1.89446">
        <ele>127.154</ele>
        <time>2012-01-29T09:26:10Z</time>
      </trkpt>
      <trkpt lat="47.96575" lon="1.89446">
        <ele>128.426</ele>
        <time>2012-01-29T09:26:13Z</time>
      </trkpt>
      <trkpt lat="47.96584" lon="1.89431">
        <ele>128.028</ele>
        <time>2012-01-29T09:26:51Z</time>
      </trkpt>
      <trkpt lat="47.96604" lon="1.89394">
        <ele>128.587</ele>
        <time>2012-01-29T09:27:05Z</time>
      </trkpt>
      <trkpt lat="47.96628" lon="1.89392">
        <ele>127.864</ele>
        <time>2012-01-29T09:27:15Z</time>
      </trkpt>
      <trkpt lat="47.96645" lon="1.89361">
        <ele>126.82</ele>
        <time>2012-01-29T09:27:26Z</time>
      </trkpt>
      <trkpt lat="47.96646" lon="1.89351">
        <ele>126.923</ele>
        <time>2012-01-29T09:27:28Z</time>
      </trkpt>
      <trkpt lat="47.96642" lon="1.89326">
        <ele>127.412</ele>
        <time>2012-01-29T09:27:34Z</time>
      </trkpt>
      <trkpt lat="47.96644" lon="1.89312">
        <ele>127.917</ele>
        <time>2012-01-29T09:27:37Z</time>
      </trkpt>
      <trkpt lat="47.96646" lon="1.89274">
        <ele>126.583</ele>
        <time>2012-01-29T09:27:46Z</time>
      </trkpt>
      <trkpt lat="47.96656" lon="1.89268">
        <ele>126.506</ele>
        <time>2012-01-29T09:27:50Z</time>
      </trkpt>
      <trkpt lat="47.96677" lon="1.89259">
        <ele>126.401</ele>
        <time>2012-01-29T09:27:57Z</time>
      </trkpt>
      <trkpt lat="47.96683" lon="1.89242">
        <ele>126.28</ele>
        <time>2012-01-29T09:28:01Z</time>
      </trkpt>
      <trkpt lat="47.96686" lon="1.8922">
        <ele>126.048</ele>
        <time>2012-01-29T09:28:06Z</time>
      </trkpt>
      <trkpt lat="47.96689" lon="1.89206">
        <ele>125.929</ele>
        <time>2012-01-29T09:28:09Z</time>
      </trkpt>
      <trkpt lat="47.96695" lon="1.89174">
        <ele>126.07</ele>
        <time>2012-01-29T09:28:18Z</time>
      </trkpt>
      <trkpt lat="47.96695" lon="1.89163">
        <ele>126.29</ele>
        <time>2012-01-29T09:28:21Z</time>
      </trkpt>
      <trkpt lat="47.96701" lon="1.89149">
        <ele>125.558</ele>
        <time>2012-01-29T09:28:25Z</time>
      </trkpt>
      <trkpt lat="47.96709" lon="1.89137">
        <ele>125.456</ele>
        <time>2012-01-29T09:28:36Z</time>
      </trkpt>
      <trkpt lat="47.9671" lon="1.89137">
        <ele>125.704</ele>
        <time>2012-01-29T09:28:37Z</time>
      </trkpt>
      <trkpt lat="47.96719" lon="1.89133">
        <ele>124.757</ele>
        <time>2012-01-29T09:28:42Z</time>
      </trkpt>
      <trkpt lat="47.96722" lon="1.89125">
        <ele>124.345</ele>
        <time>2012-01-29T09:28:46Z</time>
      </trkpt>
      <trkpt lat="47.96729" lon="1.89101">
        <ele>125.384</ele>
        <time>2012-01-29T09:28:54Z</time>
      </trkpt>
      <trkpt lat="47.96727" lon="1.89061">
        <ele>125.673</ele>
        <time>2012-01-29T09:29:06Z</time>
      </trkpt>
      <trkpt lat="47.96735" lon="1.89022">
        <ele>125.457</ele>
        <time>2012-01-29T09:29:17Z</time>
      </trkpt>
      <trkpt lat="47.96735" lon="1.89018">
        <ele>125.156</ele>
        <time>2012-01-29T09:29:38Z</time>
      </trkpt>
      <trkpt lat="47.96735" lon="1.89018">
        <ele>125.166</ele>
        <time>2012-01-29T09:30:22Z</time>
      </trkpt>
      <trkpt lat="47.96735" lon="1.89018">
        <ele>126.218</ele>
        <time>2012-01-29T09:31:22Z</time>
      </trkpt>
      <trkpt lat="47.96735" lon="1.89018">
        <ele>125.897</ele>
        <time>2012-01-29T09:32:07Z</time>
      </trkpt>
      <trkpt lat="47.96734" lon="1.88998">
        <ele>126.362</ele>
        <time>2012-01-29T09:32:15Z</time>
      </trkpt>
      <trkpt lat="47.96738" lon="1.88952">
        <ele>128.442</ele>
        <time>2012-01-29T09:32:22Z</time>
      </trkpt>
      <trkpt lat="47.96751" lon="1.88947">
        <ele>127.64</ele>
        <time>2012-01-29T09:32:35Z</time>
      </trkpt>
      <trkpt lat="47.96772" lon="1.8894">
        <ele>128.016</ele>
        <time>2012-01-29T09:32:44Z</time>
      </trkpt>
      <trkpt lat="47.96809" lon="1.88934">
        <ele>128.766</ele>
        <time>2012-01-29T09:32:58Z</time>
      </trkpt>
      <trkpt lat="47.96849" lon="1.88931">
        <ele>128.307</ele>
        <time>2012-01-29T09:33:10Z</time>
      </trkpt>
      <trkpt lat="47.96881" lon="1.88934">
        <ele>128.362</ele>
        <time>2012-01-29T09:33:20Z</time>
      </trkpt>
      <trkpt lat="47.96914" lon="1.8894">
        <ele>128.432</ele>
        <time>2012-01-29T09:33:31Z</time>
      </trkpt>
      <trkpt lat="47.96923" lon="1.8894">
        <ele>128.366</ele>
        <time>2012-01-29T09:33:34Z</time>
      </trkpt>
      <trkpt lat="47.96939" lon="1.88941">
        <ele>128.195</ele>
        <time>2012-01-29T09:33:40Z</time>
      </trkpt>
      <trkpt lat="47.96949" lon="1.88936">
        <ele>127.8</ele>
        <time>2012-01-29T09:33:44Z</time>
      </trkpt>
      <trkpt lat="47.96949" lon="1.88902">
        <ele>127.734</ele>
        <time>2012-01-29T09:33:53Z</time>
      </trkpt>
      <trkpt lat="47.9695" lon="1.88875">
        <ele>126.067</ele>
        <time>2012-01-29T09:33:59Z</time>
      </trkpt>
      <trkpt lat="47.9695" lon="1.88861">
        <ele>126.128</ele>
        <time>2012-01-29T09:34:04Z</time>
      </trkpt>
      <trkpt lat="47.96968" lon="1.8884">
        <ele>126.628</ele>
        <time>2012-01-29T09:34:13Z</time>
      </trkpt>
      <trkpt lat="47.96972" lon="1.88845">
        <ele>126.458</ele>
        <time>2012-01-29T09:34:15Z</time>
      </trkpt>
      <trkpt lat="47.96986" lon="1.88854">
        <ele>127.42</ele>
        <time>2012-01-29T09:34:54Z</time>
      </trkpt>
      <trkpt lat="47.97038" lon="1.88893">
        <ele>127.203</ele>
        <time>2012-01-29T09:35:09Z</time>
      </trkpt>
      <trkpt lat="47.97063" lon="1.88912">
        <ele>127.747</ele>
        <time>2012-01-29T09:35:17Z</time>
      </trkpt>
      <trkpt lat="47.97154" lon="1.88977">
        <ele>127.09</ele>
        <time>2012-01-29T09:35:37Z</time>
      </trkpt>
      <trkpt lat="47.97206" lon="1.89016">
        <ele>127.344</ele>
        <time>2012-01-29T09:35:49Z</time>
      </trkpt>
      <trkpt lat="47.97238" lon="1.89039">
        <ele>127.673</ele>
        <time>2012-01-29T09:35:57Z</time>
      </trkpt>
      <trkpt lat="47.97265" lon="1.89059">
        <ele>126.44</ele>
        <time>2012-01-29T09:36:03Z</time>
      </trkpt>
      <trkpt lat="47.97285" lon="1.89075">
        <ele>126.872</ele>
        <time>2012-01-29T09:36:08Z</time>
      </trkpt>
      <trkpt lat="47.97348" lon="1.89121">
        <ele>127.406</ele>
        <time>2012-01-29T09:36:22Z</time>
      </trkpt>
      <trkpt lat="47.97384" lon="1.89148">
        <ele>126.198</ele>
        <time>2012-01-29T09:36:30Z</time>
      </trkpt>
      <trkpt lat="47.97442" lon="1.89191">
        <ele>126.139</ele>
        <time>2012-01-29T09:36:42Z</time>
      </trkpt>
      <trkpt lat="47.975" lon="1.89234">
        <ele>126.311</ele>
        <time>2012-01-29T09:36:55Z</time>
      </trkpt>
      <trkpt lat="47.97537" lon="1.89262">
        <ele>126.51</ele>
        <time>2012-01-29T09:37:04Z</time>
      </trkpt>
      <trkpt lat="47.97607" lon="1.89315">
        <ele>126.72</ele>
        <time>2012-01-29T09:37:20Z</time>
      </trkpt>
      <trkpt lat="47.97686" lon="1.89374">
        <ele>125.001</ele>
        <time>2012-01-29T09:37:37Z</time>
      </trkpt>
      <trkpt lat="47.97797" lon="1.89456">
        <ele>125.052</ele>
        <time>2012-01-29T09:38:03Z</time>
      </trkpt>
      <trkpt lat="47.97884" lon="1.89521">
        <ele>124.43</ele>
        <time>2012-01-29T09:38:25Z</time>
      </trkpt>
      <trkpt lat="47.9792" lon="1.89549">
        <ele>124.874</ele>
        <time>2012-01-29T09:38:36Z</time>
      </trkpt>
      <trkpt lat="47.97906" lon="1.89565">
        <ele>124.517</ele>
        <time>2012-01-29T09:38:43Z</time>
      </trkpt>
      <trkpt lat="47.97825" lon="1.89634">
        <ele>124.264</ele>
        <time>2012-01-29T09:39:04Z</time>
      </trkpt>
      <trkpt lat="47.97831" lon="1.89671">
        <ele>124.928</ele>
        <time>2012-01-29T09:39:12Z</time>
      </trkpt>
      <trkpt lat="47.97834" lon="1.89678">
        <ele>125.13</ele>
        <time>2012-01-29T09:39:16Z</time>
      </trkpt>
      <trkpt lat="47.97835" lon="1.89683">
        <ele>124.839</ele>
        <time>2012-01-29T09:39:18Z</time>
      </trkpt>
      <trkpt lat="47.97844" lon="1.89708">
        <ele>124.999</ele>
        <time>2012-01-29T09:39:29Z</time>
      </trkpt>
      <trkpt lat="47.97856" lon="1.89746">
        <ele>125.093</ele>
        <time>2012-01-29T09:39:39Z</time>
      </trkpt>
      <trkpt lat="47.97857" lon="1.89748">
        <ele>125.013</ele>
        <time>2012-01-29T09:39:40Z</time>
      </trkpt>
      <trkpt lat="47.97881" lon="1.89816">
        <ele>124.97</ele>
        <time>2012-01-29T09:39:57Z</time>
      </trkpt>
      <trkpt lat="47.97894" lon="1.89851">
        <ele>123.163</ele>
        <time>2012-01-29T09:40:06Z</time>
      </trkpt>
      <trkpt lat="47.97908" lon="1.89895">
        <ele>124.134</ele>
        <time>2012-01-29T09:40:16Z</time>
      </trkpt>
      <trkpt lat="47.97924" lon="1.89932">
        <ele>124.999</ele>
        <time>2012-01-29T09:40:26Z</time>
      </trkpt>
      <trkpt lat="47.97943" lon="1.89977">
        <ele>125.008</ele>
        <time>2012-01-29T09:40:34Z</time>
      </trkpt>
      <trkpt lat="47.97956" lon="1.90008">
        <ele>124.552</ele>
        <time>2012-01-29T09:40:46Z</time>
      </trkpt>
      <trkpt lat="47.97958" lon="1.9002">
        <ele>124.858</ele>
        <time>2012-01-29T09:40:58Z</time>
      </trkpt>
      <trkpt lat="47.97971" lon="1.90059">
        <ele>124.727</ele>
        <time>2012-01-29T09:41:10Z</time>
      </trkpt>
      <trkpt lat="47.98" lon="1.90052">
        <ele>124.937</ele>
        <time>2012-01-29T09:41:19Z</time>
      </trkpt>
      <trkpt lat="47.98021" lon="1.90045">
        <ele>124.8</ele>
        <time>2012-01-29T09:41:24Z</time>
      </trkpt>
      <trkpt lat="47.98037" lon="1.90033">
        <ele>124.578</ele>
        <time>2012-01-29T09:41:28Z</time>
      </trkpt>
      <trkpt lat="47.98078" lon="1.90005">
        <ele>124.068</ele>
        <time>2012-01-29T09:41:37Z</time>
      </trkpt>
      <trkpt lat="47.98108" lon="1.89983">
        <ele>123.414</ele>
        <time>2012-01-29T09:41:43Z</time>
      </trkpt>
      <trkpt lat="47.98179" lon="1.89932">
        <ele>123.668</ele>
        <time>2012-01-29T09:41:57Z</time>
      </trkpt>
      <trkpt lat="47.98237" lon="1.8989">
        <ele>122.8</ele>
        <time>2012-01-29T09:42:09Z</time>
      </trkpt>
      <trkpt lat="47.98251" lon="1.8988">
        <ele>122.82</ele>
        <time>2012-01-29T09:42:12Z</time>
      </trkpt>
      <trkpt lat="47.9826" lon="1.89874">
        <ele>122.687</ele>
        <time>2012-01-29T09:42:14Z</time>
      </trkpt>
      <trkpt lat="47.98311" lon="1.8984">
        <ele>122.545</ele>
        <time>2012-01-29T09:42:30Z</time>
      </trkpt>
      <trkpt lat="47.98338" lon="1.8981">
        <ele>122.378</ele>
        <time>2012-01-29T09:42:40Z</time>
      </trkpt>
      <trkpt lat="47.98387" lon="1.89757">
        <ele>122.237</ele>
        <time>2012-01-29T09:42:56Z</time>
      </trkpt>
      <trkpt lat="47.98404" lon="1.89738">
        <ele>122.631</ele>
        <time>2012-01-29T09:43:04Z</time>
      </trkpt>
      <trkpt lat="47.98418" lon="1.89726">
        <ele>123.116</ele>
        <time>2012-01-29T09:43:09Z</time>
      </trkpt>
      <trkpt lat="47.98447" lon="1.89729">
        <ele>124.285</ele>
        <time>2012-01-29T09:43:18Z</time>
      </trkpt>
      <trkpt lat="47.98457" lon="1.89742">
        <ele>124.45</ele>
        <time>2012-01-29T09:43:24Z</time>
      </trkpt>
      <trkpt lat="47.98462" lon="1.89789">
        <ele>124.413</ele>
        <time>2012-01-29T09:43:35Z</time>
      </trkpt>
      <trkpt lat="47.98463" lon="1.89797">
        <ele>124.283</ele>
        <time>2012-01-29T09:43:37Z</time>
      </trkpt>
      <trkpt lat="47.98458" lon="1.89847">
        <ele>124.802</ele>
        <time>2012-01-29T09:43:48Z</time>
      </trkpt>
      <trkpt lat="47.98458" lon="1.89867">
        <ele>125.014</ele>
        <time>2012-01-29T09:43:51Z</time>
      </trkpt>
      <trkpt lat="47.98461" lon="1.89883">
        <ele>125.109</ele>
        <time>2012-01-29T09:43:55Z</time>
      </trkpt>
      <trkpt lat="47.98462" lon="1.89891">
        <ele>124.958</ele>
        <time>2012-01-29T09:43:57Z</time>
      </trkpt>
      <trkpt lat="47.98477" lon="1.89905">
        <ele>125.254</ele>
        <time>2012-01-29T09:44:04Z</time>
      </trkpt>
      <trkpt lat="47.98486" lon="1.89919">
        <ele>124.98</ele>
        <time>2012-01-29T09:44:08Z</time>
      </trkpt>
      <trkpt lat="47.98488" lon="1.89955">
        <ele>124.804</ele>
        <time>2012-01-29T09:44:15Z</time>
      </trkpt>
      <trkpt lat="47.98506" lon="1.89998">
        <ele>124.077</ele>
        <time>2012-01-29T09:44:25Z</time>
      </trkpt>
      <trkpt lat="47.98517" lon="1.9">
        <ele>124.503</ele>
        <time>2012-01-29T09:44:28Z</time>
      </trkpt>
      <trkpt lat="47.98551" lon="1.90017">
        <ele>124.506</ele>
        <time>2012-01-29T09:44:37Z</time>
      </trkpt>
      <trkpt lat="47.9857" lon="1.90025">
        <ele>124.341</ele>
        <time>2012-01-29T09:44:41Z</time>
      </trkpt>
      <trkpt lat="47.98586" lon="1.90043">
        <ele>124.86</ele>
        <time>2012-01-29T09:44:46Z</time>
      </trkpt>
      <trkpt lat="47.98597" lon="1.90091">
        <ele>124.697</ele>
        <time>2012-01-29T09:44:58Z</time>
      </trkpt>
      <trkpt lat="47.98608" lon="1.90127">
        <ele>124.172</ele>
        <time>2012-01-29T09:45:04Z</time>
      </trkpt>
      <trkpt lat="47.98616" lon="1.90162">
        <ele>124.865</ele>
        <time>2012-01-29T09:45:09Z</time>
      </trkpt>
      <trkpt lat="47.98628" lon="1.90195">
        <ele>124.455</ele>
        <time>2012-01-29T09:45:14Z</time>
      </trkpt>
      <trkpt lat="47.98632" lon="1.90201">
        <ele>124.763</ele>
        <time>2012-01-29T09:45:16Z</time>
      </trkpt>
      <trkpt lat="47.98636" lon="1.90234">
        <ele>125.17</ele>
        <time>2012-01-29T09:45:23Z</time>
      </trkpt>
      <trkpt lat="47.98666" lon="1.90314">
        <ele>125.815</ele>
        <time>2012-01-29T09:45:35Z</time>
      </trkpt>
      <trkpt lat="47.98661" lon="1.90348">
        <ele>124.975</ele>
        <time>2012-01-29T09:45:39Z</time>
      </trkpt>
      <trkpt lat="47.98647" lon="1.90445">
        <ele>126.239</ele>
        <time>2012-01-29T09:45:51Z</time>
      </trkpt>
      <trkpt lat="47.98635" lon="1.9053">
        <ele>125.514</ele>
        <time>2012-01-29T09:46:03Z</time>
      </trkpt>
      <trkpt lat="47.9865" lon="1.90552">
        <ele>125.294</ele>
        <time>2012-01-29T09:46:08Z</time>
      </trkpt>
      <trkpt lat="47.98685" lon="1.90552">
        <ele>126.367</ele>
        <time>2012-01-29T09:46:16Z</time>
      </trkpt>
      <trkpt lat="47.98694" lon="1.90552">
        <ele>126.365</ele>
        <time>2012-01-29T09:46:18Z</time>
      </trkpt>
      <trkpt lat="47.98712" lon="1.90551">
        <ele>126.253</ele>
        <time>2012-01-29T09:46:22Z</time>
      </trkpt>
      <trkpt lat="47.98751" lon="1.9055">
        <ele>126.407</ele>
        <time>2012-01-29T09:46:31Z</time>
      </trkpt>
      <trkpt lat="47.98801" lon="1.90545">
        <ele>126.921</ele>
        <time>2012-01-29T09:46:42Z</time>
      </trkpt>
      <trkpt lat="47.9887" lon="1.90538">
        <ele>126.758</ele>
        <time>2012-01-29T09:46:58Z</time>
      </trkpt>
      <trkpt lat="47.98884" lon="1.90583">
        <ele>126.922</ele>
        <time>2012-01-29T09:47:09Z</time>
      </trkpt>
      <trkpt lat="47.9889" lon="1.90666">
        <ele>127.635</ele>
        <time>2012-01-29T09:47:22Z</time>
      </trkpt>
      <trkpt lat="47.98886" lon="1.90682">
        <ele>127.326</ele>
        <time>2012-01-29T09:47:25Z</time>
      </trkpt>
      <trkpt lat="47.98883" lon="1.90693">
        <ele>127.282</ele>
        <time>2012-01-29T09:47:27Z</time>
      </trkpt>
      <trkpt lat="47.98877" lon="1.90717">
        <ele>127.163</ele>
        <time>2012-01-29T09:47:32Z</time>
      </trkpt>
      <trkpt lat="47.98869" lon="1.90746">
        <ele>126.947</ele>
        <time>2012-01-29T09:47:37Z</time>
      </trkpt>
      <trkpt lat="47.98855" lon="1.90799">
        <ele>125.925</ele>
        <time>2012-01-29T09:47:46Z</time>
      </trkpt>
      <trkpt lat="47.98849" lon="1.90823">
        <ele>126.041</ele>
        <time>2012-01-29T09:47:50Z</time>
      </trkpt>
      <trkpt lat="47.98844" lon="1.90842">
        <ele>125.993</ele>
        <time>2012-01-29T09:47:53Z</time>
      </trkpt>
      <trkpt lat="47.98823" lon="1.90918">
        <ele>126.087</ele>
        <time>2012-01-29T09:48:05Z</time>
      </trkpt>
      <trkpt lat="47.98803" lon="1.90978">
        <ele>126.161</ele>
        <time>2012-01-29T09:48:15Z</time>
      </trkpt>
      <trkpt lat="47.98793" lon="1.91016">
        <ele>126.263</ele>
        <time>2012-01-29T09:48:22Z</time>
      </trkpt>
      <trkpt lat="47.9878" lon="1.91079">
        <ele>126.569</ele>
        <time>2012-01-29T09:48:34Z</time>
      </trkpt>
      <trkpt lat="47.98734" lon="1.91096">
        <ele>125.956</ele>
        <time>2012-01-29T09:48:44Z</time>
      </trkpt>
      <trkpt lat="47.98705" lon="1.91071">
        <ele>126.606</ele>
        <time>2012-01-29T09:48:53Z</time>
      </trkpt>
      <trkpt lat="47.98664" lon="1.91036">
        <ele>126.379</ele>
        <time>2012-01-29T09:49:02Z</time>
      </trkpt>
      <trkpt lat="47.98647" lon="1.91025">
        <ele>125.457</ele>
        <time>2012-01-29T09:49:08Z</time>
      </trkpt>
      <trkpt lat="47.98657" lon="1.91064">
        <ele>125.958</ele>
        <time>2012-01-29T09:49:21Z</time>
      </trkpt>
      <trkpt lat="47.98663" lon="1.91104">
        <ele>126.541</ele>
        <time>2012-01-29T09:49:31Z</time>
      </trkpt>
      <trkpt lat="47.98671" lon="1.91159">
        <ele>126.302</ele>
        <time>2012-01-29T09:49:43Z</time>
      </trkpt>
      <trkpt lat="47.98678" lon="1.91211">
        <ele>127.071</ele>
        <time>2012-01-29T09:49:54Z</time>
      </trkpt>
      <trkpt lat="47.98685" lon="1.91265">
        <ele>127.404</ele>
        <time>2012-01-29T09:50:04Z</time>
      </trkpt>
      <trkpt lat="47.98693" lon="1.91321">
        <ele>127.123</ele>
        <time>2012-01-29T09:50:14Z</time>
      </trkpt>
      <trkpt lat="47.987" lon="1.91373">
        <ele>127.427</ele>
        <time>2012-01-29T09:50:23Z</time>
      </trkpt>
      <trkpt lat="47.98709" lon="1.91436">
        <ele>127.145</ele>
        <time>2012-01-29T09:50:34Z</time>
      </trkpt>
      <trkpt lat="47.9871" lon="1.91445">
        <ele>127.141</ele>
        <time>2012-01-29T09:50:37Z</time>
      </trkpt>
      <trkpt lat="47.9871" lon="1.91443">
        <ele>128.046</ele>
        <time>2012-01-29T09:50:46Z</time>
      </trkpt>
      <trkpt lat="47.9871" lon="1.91443">
        <ele>127.275</ele>
        <time>2012-01-29T09:50:51Z</time>
      </trkpt>
      <trkpt lat="47.98773" lon="1.91458">
        <ele>127.048</ele>
        <time>2012-01-29T09:51:01Z</time>
      </trkpt>
      <trkpt lat="47.98796" lon="1.91464">
        <ele>126.634</ele>
        <time>2012-01-29T09:51:12Z</time>
      </trkpt>
      <trkpt lat="47.98798" lon="1.91465">
        <ele>126.61</ele>
        <time>2012-01-29T09:51:14Z</time>
      </trkpt>
      <trkpt lat="47.98804" lon="1.91472">
        <ele>126.909</ele>
        <time>2012-01-29T09:51:27Z</time>
      </trkpt>
      <trkpt lat="47.98826" lon="1.91475">
        <ele>126.776</ele>
        <time>2012-01-29T09:51:42Z</time>
      </trkpt>
      <trkpt lat="47.9885" lon="1.91476">
        <ele>126.825</ele>
        <time>2012-01-29T09:51:50Z</time>
      </trkpt>
      <trkpt lat="47.98874" lon="1.91481">
        <ele>126.773</ele>
        <time>2012-01-29T09:52:00Z</time>
      </trkpt>
      <trkpt lat="47.98892" lon="1.91482">
        <ele>126.2</ele>
        <time>2012-01-29T09:52:09Z</time>
      </trkpt>
      <trkpt lat="47.98894" lon="1.91483">
        <ele>126.193</ele>
        <time>2012-01-29T09:52:10Z</time>
      </trkpt>
      <trkpt lat="47.98929" lon="1.91491">
        <ele>126.369</ele>
        <time>2012-01-29T09:52:22Z</time>
      </trkpt>
      <trkpt lat="47.98944" lon="1.91495">
        <ele>126.08</ele>
        <time>2012-01-29T09:52:32Z</time>
      </trkpt>
      <trkpt lat="47.98949" lon="1.91499">
        <ele>126.125</ele>
        <time>2012-01-29T09:52:44Z</time>
      </trkpt>
      <trkpt lat="47.98965" lon="1.91513">
        <ele>125.998</ele>
        <time>2012-01-29T09:52:54Z</time>
      </trkpt>
      <trkpt lat="47.9897" lon="1.91517">
        <ele>126.002</ele>
        <time>2012-01-29T09:52:57Z</time>
      </trkpt>
      <trkpt lat="47.98991" lon="1.91526">
        <ele>126.499</ele>
        <time>2012-01-29T09:53:07Z</time>
      </trkpt>
      <trkpt lat="47.98995" lon="1.9153">
        <ele>126.061</ele>
        <time>2012-01-29T09:53:09Z</time>
      </trkpt>
      <trkpt lat="47.99013" lon="1.9154">
        <ele>125.962</ele>
        <time>2012-01-29T09:53:19Z</time>
      </trkpt>
      <trkpt lat="47.99036" lon="1.91565">
        <ele>125.774</ele>
        <time>2012-01-29T09:53:28Z</time>
      </trkpt>
      <trkpt lat="47.99046" lon="1.91569">
        <ele>125.57</ele>
        <time>2012-01-29T09:53:32Z</time>
      </trkpt>
      <trkpt lat="47.99054" lon="1.9158">
        <ele>125.665</ele>
        <time>2012-01-29T09:53:37Z</time>
      </trkpt>
      <trkpt lat="47.99072" lon="1.9159">
        <ele>126.105</ele>
        <time>2012-01-29T09:53:47Z</time>
      </trkpt>
      <trkpt lat="47.99072" lon="1.9159">
        <ele>126.1</ele>
        <time>2012-01-29T09:53:53Z</time>
      </trkpt>
      <trkpt lat="47.99075" lon="1.91593">
        <ele>126.017</ele>
        <time>2012-01-29T09:54:04Z</time>
      </trkpt>
      <trkpt lat="47.99065" lon="1.91621">
        <ele>126.363</ele>
        <time>2012-01-29T09:54:14Z</time>
      </trkpt>
      <trkpt lat="47.99045" lon="1.91667">
        <ele>126.189</ele>
        <time>2012-01-29T09:54:24Z</time>
      </trkpt>
      <trkpt lat="47.99003" lon="1.91742">
        <ele>125.131</ele>
        <time>2012-01-29T09:54:40Z</time>
      </trkpt>
      <trkpt lat="47.98968" lon="1.91801">
        <ele>125.14</ele>
        <time>2012-01-29T09:54:53Z</time>
      </trkpt>
      <trkpt lat="47.98936" lon="1.91859">
        <ele>124.98</ele>
        <time>2012-01-29T09:55:08Z</time>
      </trkpt>
      <trkpt lat="47.98904" lon="1.91855">
        <ele>125.841</ele>
        <time>2012-01-29T09:55:17Z</time>
      </trkpt>
      <trkpt lat="47.98831" lon="1.91832">
        <ele>126.196</ele>
        <time>2012-01-29T09:55:32Z</time>
      </trkpt>
      <trkpt lat="47.98802" lon="1.91822">
        <ele>126.381</ele>
        <time>2012-01-29T09:55:38Z</time>
      </trkpt>
      <trkpt lat="47.98724" lon="1.91796">
        <ele>126.691</ele>
        <time>2012-01-29T09:55:54Z</time>
      </trkpt>
      <trkpt lat="47.987" lon="1.91788">
        <ele>126.49</ele>
        <time>2012-01-29T09:55:59Z</time>
      </trkpt>
      <trkpt lat="47.9865" lon="1.91772">
        <ele>127.255</ele>
        <time>2012-01-29T09:56:10Z</time>
      </trkpt>
      <trkpt lat="47.9859" lon="1.91752">
        <ele>129.227</ele>
        <time>2012-01-29T09:56:24Z</time>
      </trkpt>
      <trkpt lat="47.98586" lon="1.9175">
        <ele>129.229</ele>
        <time>2012-01-29T09:56:25Z</time>
      </trkpt>
      <trkpt lat="47.98571" lon="1.91745">
        <ele>128.903</ele>
        <time>2012-01-29T09:56:28Z</time>
      </trkpt>
      <trkpt lat="47.98518" lon="1.91728">
        <ele>128.876</ele>
        <time>2012-01-29T09:56:39Z</time>
      </trkpt>
      <trkpt lat="47.98455" lon="1.91706">
        <ele>128.688</ele>
        <time>2012-01-29T09:56:53Z</time>
      </trkpt>
      <trkpt lat="47.98416" lon="1.91693">
        <ele>128.848</ele>
        <time>2012-01-29T09:57:03Z</time>
      </trkpt>
      <trkpt lat="47.98389" lon="1.91684">
        <ele>128.861</ele>
        <time>2012-01-29T09:57:10Z</time>
      </trkpt>
      <trkpt lat="47.98376" lon="1.91705">
        <ele>128.691</ele>
        <time>2012-01-29T09:57:15Z</time>
      </trkpt>
      <trkpt lat="47.98378" lon="1.91756">
        <ele>127.98</ele>
        <time>2012-01-29T09:57:23Z</time>
      </trkpt>
      <trkpt lat="47.98379" lon="1.91796">
        <ele>127.847</ele>
        <time>2012-01-29T09:57:28Z</time>
      </trkpt>
      <trkpt lat="47.9838" lon="1.91826">
        <ele>127.605</ele>
        <time>2012-01-29T09:57:32Z</time>
      </trkpt>
      <trkpt lat="47.9838" lon="1.91875">
        <ele>127.313</ele>
        <time>2012-01-29T09:57:38Z</time>
      </trkpt>
      <trkpt lat="47.98386" lon="1.92002">
        <ele>127.022</ele>
        <time>2012-01-29T09:57:54Z</time>
      </trkpt>
      <trkpt lat="47.98387" lon="1.92026">
        <ele>126.566</ele>
        <time>2012-01-29T09:57:57Z</time>
      </trkpt>
      <trkpt lat="47.98388" lon="1.92083">
        <ele>126.557</ele>
        <time>2012-01-29T09:58:04Z</time>
      </trkpt>
      <trkpt lat="47.9838" lon="1.92146">
        <ele>126.555</ele>
        <time>2012-01-29T09:58:12Z</time>
      </trkpt>
      <trkpt lat="47.98383" lon="1.92177">
        <ele>126.38</ele>
        <time>2012-01-29T09:58:16Z</time>
      </trkpt>
      <trkpt lat="47.98392" lon="1.92214">
        <ele>125.968</ele>
        <time>2012-01-29T09:58:21Z</time>
      </trkpt>
      <trkpt lat="47.98393" lon="1.92246">
        <ele>126.04</ele>
        <time>2012-01-29T09:58:25Z</time>
      </trkpt>
      <trkpt lat="47.98394" lon="1.92266">
        <ele>126.29</ele>
        <time>2012-01-29T09:58:28Z</time>
      </trkpt>
      <trkpt lat="47.98397" lon="1.92317">
        <ele>126.39</ele>
        <time>2012-01-29T09:58:37Z</time>
      </trkpt>
      <trkpt lat="47.98399" lon="1.92364">
        <ele>126.812</ele>
        <time>2012-01-29T09:58:43Z</time>
      </trkpt>
      <trkpt lat="47.984" lon="1.92431">
        <ele>126.346</ele>
        <time>2012-01-29T09:58:52Z</time>
      </trkpt>
      <trkpt lat="47.98401" lon="1.92481">
        <ele>126.574</ele>
        <time>2012-01-29T09:58:59Z</time>
      </trkpt>
      <trkpt lat="47.98403" lon="1.92524">
        <ele>127.004</ele>
        <time>2012-01-29T09:59:05Z</time>
      </trkpt>
      <trkpt lat="47.98404" lon="1.92552">
        <ele>127.483</ele>
        <time>2012-01-29T09:59:09Z</time>
      </trkpt>
      <trkpt lat="47.98414" lon="1.92538">
        <ele>126.417</ele>
        <time>2012-01-29T09:59:46Z</time>
      </trkpt>
      <trkpt lat="47.98443" lon="1.92551">
        <ele>126.699</ele>
        <time>2012-01-29T09:59:57Z</time>
      </trkpt>
      <trkpt lat="47.98465" lon="1.92561">
        <ele>126.06</ele>
        <time>2012-01-29T10:00:02Z</time>
      </trkpt>
      <trkpt lat="47.98491" lon="1.92574">
        <ele>125.86</ele>
        <time>2012-01-29T10:00:08Z</time>
      </trkpt>
      <trkpt lat="47.98506" lon="1.92581">
        <ele>125.724</ele>
        <time>2012-01-29T10:00:12Z</time>
      </trkpt>
      <trkpt lat="47.98514" lon="1.92585">
        <ele>125.726</ele>
        <time>2012-01-29T10:00:16Z</time>
      </trkpt>
      <trkpt lat="47.98539" lon="1.92597">
        <ele>125.765</ele>
        <time>2012-01-29T10:00:24Z</time>
      </trkpt>
      <trkpt lat="47.98542" lon="1.92599">
        <ele>126.009</ele>
        <time>2012-01-29T10:00:25Z</time>
      </trkpt>
      <trkpt lat="47.98585" lon="1.92618">
        <ele>125.772</ele>
        <time>2012-01-29T10:00:37Z</time>
      </trkpt>
      <trkpt lat="47.98626" lon="1.92637">
        <ele>125.225</ele>
        <time>2012-01-29T10:00:46Z</time>
      </trkpt>
      <trkpt lat="47.98662" lon="1.92653">
        <ele>124.842</ele>
        <time>2012-01-29T10:00:55Z</time>
      </trkpt>
      <trkpt lat="47.98689" lon="1.92666">
        <ele>123.827</ele>
        <time>2012-01-29T10:01:02Z</time>
      </trkpt>
      <trkpt lat="47.98694" lon="1.92668">
        <ele>124.388</ele>
        <time>2012-01-29T10:01:03Z</time>
      </trkpt>
      <trkpt lat="47.98694" lon="1.92668">
        <ele>124.625</ele>
        <time>2012-01-29T10:01:05Z</time>
      </trkpt>
      <trkpt lat="47.98751" lon="1.92694">
        <ele>124.274</ele>
        <time>2012-01-29T10:01:18Z</time>
      </trkpt>
      <trkpt lat="47.98759" lon="1.92697">
        <ele>124.522</ele>
        <time>2012-01-29T10:01:20Z</time>
      </trkpt>
      <trkpt lat="47.98766" lon="1.927">
        <ele>124.538</ele>
        <time>2012-01-29T10:01:22Z</time>
      </trkpt>
      <trkpt lat="47.98772" lon="1.92703">
        <ele>124.602</ele>
        <time>2012-01-29T10:01:25Z</time>
      </trkpt>
      <trkpt lat="47.98781" lon="1.92707">
        <ele>124.758</ele>
        <time>2012-01-29T10:01:28Z</time>
      </trkpt>
      <trkpt lat="47.98793" lon="1.92712">
        <ele>125.013</ele>
        <time>2012-01-29T10:01:32Z</time>
      </trkpt>
      <trkpt lat="47.98823" lon="1.92725">
        <ele>125.277</ele>
        <time>2012-01-29T10:01:41Z</time>
      </trkpt>
      <trkpt lat="47.98847" lon="1.92736">
        <ele>125.218</ele>
        <time>2012-01-29T10:01:47Z</time>
      </trkpt>
      <trkpt lat="47.9888" lon="1.9275">
        <ele>125.33</ele>
        <time>2012-01-29T10:01:55Z</time>
      </trkpt>
      <trkpt lat="47.98888" lon="1.92754">
        <ele>125.325</ele>
        <time>2012-01-29T10:01:57Z</time>
      </trkpt>
      <trkpt lat="47.98902" lon="1.92761">
        <ele>125.442</ele>
        <time>2012-01-29T10:02:01Z</time>
      </trkpt>
      <trkpt lat="47.98941" lon="1.92779">
        <ele>125.658</ele>
        <time>2012-01-29T10:02:10Z</time>
      </trkpt>
      <trkpt lat="47.98976" lon="1.92796">
        <ele>125.388</ele>
        <time>2012-01-29T10:02:18Z</time>
      </trkpt>
      <trkpt lat="47.99009" lon="1.9281">
        <ele>125.433</ele>
        <time>2012-01-29T10:02:26Z</time>
      </trkpt>
      <trkpt lat="47.99052" lon="1.92828">
        <ele>125.479</ele>
        <time>2012-01-29T10:02:36Z</time>
      </trkpt>
      <trkpt lat="47.99105" lon="1.92854">
        <ele>125.658</ele>
        <time>2012-01-29T10:02:48Z</time>
      </trkpt>
      <trkpt lat="47.9913" lon="1.92865">
        <ele>125.754</ele>
        <time>2012-01-29T10:02:54Z</time>
      </trkpt>
      <trkpt lat="47.99144" lon="1.9287">
        <ele>126.025</ele>
        <time>2012-01-29T10:02:57Z</time>
      </trkpt>
      <trkpt lat="47.99165" lon="1.92879">
        <ele>126.044</ele>
        <time>2012-01-29T10:03:03Z</time>
      </trkpt>
      <trkpt lat="47.99206" lon="1.92896">
        <ele>126.238</ele>
        <time>2012-01-29T10:03:14Z</time>
      </trkpt>
      <trkpt lat="47.99251" lon="1.92917">
        <ele>126.183</ele>
        <time>2012-01-29T10:03:24Z</time>
      </trkpt>
      <trkpt lat="47.99314" lon="1.92947">
        <ele>125.744</ele>
        <time>2012-01-29T10:03:38Z</time>
      </trkpt>
      <trkpt lat="47.99345" lon="1.92962">
        <ele>124.751</ele>
        <time>2012-01-29T10:03:45Z</time>
      </trkpt>
      <trkpt lat="47.9939" lon="1.92983">
        <ele>124.817</ele>
        <time>2012-01-29T10:03:56Z</time>
      </trkpt>
      <trkpt lat="47.99396" lon="1.92986">
        <ele>124.917</ele>
        <time>2012-01-29T10:03:58Z</time>
      </trkpt>
      <trkpt lat="47.99417" lon="1.92996">
        <ele>124.365</ele>
        <time>2012-01-29T10:04:03Z</time>
      </trkpt>
      <trkpt lat="47.99451" lon="1.93009">
        <ele>123.871</ele>
        <time>2012-01-29T10:04:11Z</time>
      </trkpt>
      <trkpt lat="47.99466" lon="1.93015">
        <ele>123.843</ele>
        <time>2012-01-29T10:04:14Z</time>
      </trkpt>
      <trkpt lat="47.99478" lon="1.93019">
        <ele>123.849</ele>
        <time>2012-01-29T10:04:18Z</time>
      </trkpt>
      <trkpt lat="47.99492" lon="1.93024">
        <ele>124.29</ele>
        <time>2012-01-29T10:04:23Z</time>
      </trkpt>
      <trkpt lat="47.99498" lon="1.93027">
        <ele>124.633</ele>
        <time>2012-01-29T10:04:25Z</time>
      </trkpt>
      <trkpt lat="47.99509" lon="1.93031">
        <ele>124.743</ele>
        <time>2012-01-29T10:04:29Z</time>
      </trkpt>
      <trkpt lat="47.99538" lon="1.93041">
        <ele>124.793</ele>
        <time>2012-01-29T10:04:38Z</time>
      </trkpt>
      <trkpt lat="47.99546" lon="1.93044">
        <ele>124.794</ele>
        <time>2012-01-29T10:04:41Z</time>
      </trkpt>
      <trkpt lat="47.99577" lon="1.93059">
        <ele>125.062</ele>
        <time>2012-01-29T10:04:51Z</time>
      </trkpt>
      <trkpt lat="47.99592" lon="1.93083">
        <ele>124.333</ele>
        <time>2012-01-29T10:04:58Z</time>
      </trkpt>
      <trkpt lat="47.99592" lon="1.93083">
        <ele>124.56</ele>
        <time>2012-01-29T10:05:08Z</time>
      </trkpt>
      <trkpt lat="47.99592" lon="1.93083">
        <ele>125.23</ele>
        <time>2012-01-29T10:05:13Z</time>
      </trkpt>
      <trkpt lat="47.99647" lon="1.93115">
        <ele>125.499</ele>
        <time>2012-01-29T10:05:26Z</time>
      </trkpt>
      <trkpt lat="47.99675" lon="1.93124">
        <ele>125.021</ele>
        <time>2012-01-29T10:05:34Z</time>
      </trkpt>
      <trkpt lat="47.99682" lon="1.93127">
        <ele>124.986</ele>
        <time>2012-01-29T10:05:37Z</time>
      </trkpt>
      <trkpt lat="47.99687" lon="1.93129">
        <ele>124.714</ele>
        <time>2012-01-29T10:05:40Z</time>
      </trkpt>
      <trkpt lat="47.99698" lon="1.93216">
        <ele>123.743</ele>
        <time>2012-01-29T10:05:52Z</time>
      </trkpt>
      <trkpt lat="47.99705" lon="1.93246">
        <ele>123.999</ele>
        <time>2012-01-29T10:05:56Z</time>
      </trkpt>
      <trkpt lat="47.99754" lon="1.9337">
        <ele>124.023</ele>
        <time>2012-01-29T10:06:16Z</time>
      </trkpt>
      <trkpt lat="47.99774" lon="1.93427">
        <ele>123.53</ele>
        <time>2012-01-29T10:06:25Z</time>
      </trkpt>
      <trkpt lat="47.99774" lon="1.93464">
        <ele>123.28</ele>
        <time>2012-01-29T10:06:31Z</time>
      </trkpt>
      <trkpt lat="47.99744" lon="1.93614">
        <ele>123.308</ele>
        <time>2012-01-29T10:06:53Z</time>
      </trkpt>
      <trkpt lat="47.99742" lon="1.93634">
        <ele>123.17</ele>
        <time>2012-01-29T10:06:56Z</time>
      </trkpt>
      <trkpt lat="47.99744" lon="1.93662">
        <ele>123.002</ele>
        <time>2012-01-29T10:07:00Z</time>
      </trkpt>
      <trkpt lat="47.99749" lon="1.93673">
        <ele>122.983</ele>
        <time>2012-01-29T10:07:02Z</time>
      </trkpt>
      <trkpt lat="47.99768" lon="1.93688">
        <ele>122.439</ele>
        <time>2012-01-29T10:07:09Z</time>
      </trkpt>
      <trkpt lat="47.99787" lon="1.9369">
        <ele>122.581</ele>
        <time>2012-01-29T10:07:16Z</time>
      </trkpt>
      <trkpt lat="47.99787" lon="1.93691">
        <ele>122.648</ele>
        <time>2012-01-29T10:07:23Z</time>
      </trkpt>
      <trkpt lat="47.99783" lon="1.93721">
        <ele>123.368</ele>
        <time>2012-01-29T10:07:28Z</time>
      </trkpt>
      <trkpt lat="47.99785" lon="1.93791">
        <ele>123.283</ele>
        <time>2012-01-29T10:07:41Z</time>
      </trkpt>
      <trkpt lat="47.99785" lon="1.93802">
        <ele>123.854</ele>
        <time>2012-01-29T10:07:45Z</time>
      </trkpt>
      <trkpt lat="47.99803" lon="1.93792">
        <ele>124.38</ele>
        <time>2012-01-29T10:07:50Z</time>
      </trkpt>
      <trkpt lat="47.99824" lon="1.93775">
        <ele>124.771</ele>
        <time>2012-01-29T10:07:56Z</time>
      </trkpt>
      <trkpt lat="47.99831" lon="1.93789">
        <ele>124.604</ele>
        <time>2012-01-29T10:08:01Z</time>
      </trkpt>
      <trkpt lat="47.99828" lon="1.9384">
        <ele>124.905</ele>
        <time>2012-01-29T10:08:10Z</time>
      </trkpt>
      <trkpt lat="47.99825" lon="1.93893">
        <ele>125.326</ele>
        <time>2012-01-29T10:08:18Z</time>
      </trkpt>
      <trkpt lat="47.99822" lon="1.93937">
        <ele>125.321</ele>
        <time>2012-01-29T10:08:26Z</time>
      </trkpt>
      <trkpt lat="47.99824" lon="1.93999">
        <ele>124.445</ele>
        <time>2012-01-29T10:08:36Z</time>
      </trkpt>
      <trkpt lat="47.99828" lon="1.94012">
        <ele>124.104</ele>
        <time>2012-01-29T10:08:39Z</time>
      </trkpt>
      <trkpt lat="47.99827" lon="1.94098">
        <ele>122.31</ele>
        <time>2012-01-29T10:08:53Z</time>
      </trkpt>
      <trkpt lat="47.99826" lon="1.94129">
        <ele>122.105</ele>
        <time>2012-01-29T10:09:01Z</time>
      </trkpt>
      <trkpt lat="47.99828" lon="1.94147">
        <ele>121.392</ele>
        <time>2012-01-29T10:09:11Z</time>
      </trkpt>
      <trkpt lat="47.99828" lon="1.94147">
        <ele>122.277</ele>
        <time>2012-01-29T10:09:24Z</time>
      </trkpt>
      <trkpt lat="47.99834" lon="1.9416">
        <ele>122.083</ele>
        <time>2012-01-29T10:09:36Z</time>
      </trkpt>
      <trkpt lat="47.99835" lon="1.94161">
        <ele>121.114</ele>
        <time>2012-01-29T10:09:54Z</time>
      </trkpt>
      <trkpt lat="47.99835" lon="1.94161">
        <ele>122.039</ele>
        <time>2012-01-29T10:10:10Z</time>
      </trkpt>
      <trkpt lat="47.99835" lon="1.94161">
        <ele>121.474</ele>
        <time>2012-01-29T10:10:27Z</time>
      </trkpt>
      <trkpt lat="47.99845" lon="1.94183">
        <ele>122.14</ele>
        <time>2012-01-29T10:10:40Z</time>
      </trkpt>
      <trkpt lat="47.99861" lon="1.94242">
        <ele>122.318</ele>
        <time>2012-01-29T10:10:42Z</time>
      </trkpt>
      <trkpt lat="47.99796" lon="1.94305">
        <ele>122.039</ele>
        <time>2012-01-29T10:10:57Z</time>
      </trkpt>
      <trkpt lat="47.99794" lon="1.94315">
        <ele>122.243</ele>
        <time>2012-01-29T10:11:01Z</time>
      </trkpt>
      <trkpt lat="47.99796" lon="1.94328">
        <ele>122.252</ele>
        <time>2012-01-29T10:11:10Z</time>
      </trkpt>
      <trkpt lat="47.99795" lon="1.94337">
        <ele>122.442</ele>
        <time>2012-01-29T10:11:25Z</time>
      </trkpt>
      <trkpt lat="47.99794" lon="1.94348">
        <ele>122.107</ele>
        <time>2012-01-29T10:11:38Z</time>
      </trkpt>
      <trkpt lat="47.99793" lon="1.94374">
        <ele>122.422</ele>
        <time>2012-01-29T10:11:58Z</time>
      </trkpt>
      <trkpt lat="47.99791" lon="1.94405">
        <ele>122.752</ele>
        <time>2012-01-29T10:12:08Z</time>
      </trkpt>
      <trkpt lat="47.9979" lon="1.9441">
        <ele>122.706</ele>
        <time>2012-01-29T10:12:10Z</time>
      </trkpt>
      <trkpt lat="47.99789" lon="1.94444">
        <ele>124.1</ele>
        <time>2012-01-29T10:12:21Z</time>
      </trkpt>
      <trkpt lat="47.99791" lon="1.94462">
        <ele>124.164</ele>
        <time>2012-01-29T10:12:28Z</time>
      </trkpt>
      <trkpt lat="47.998" lon="1.94482">
        <ele>123.99</ele>
        <time>2012-01-29T10:12:35Z</time>
      </trkpt>
      <trkpt lat="47.99794" lon="1.94493">
        <ele>124.413</ele>
        <time>2012-01-29T10:12:41Z</time>
      </trkpt>
      <trkpt lat="47.99791" lon="1.94515">
        <ele>125.644</ele>
        <time>2012-01-29T10:12:49Z</time>
      </trkpt>
      <trkpt lat="47.99774" lon="1.94547">
        <ele>125.358</ele>
        <time>2012-01-29T10:13:01Z</time>
      </trkpt>
      <trkpt lat="47.99768" lon="1.94548">
        <ele>125.224</ele>
        <time>2012-01-29T10:13:05Z</time>
      </trkpt>
      <trkpt lat="47.99743" lon="1.94566">
        <ele>125.451</ele>
        <time>2012-01-29T10:13:15Z</time>
      </trkpt>
      <trkpt lat="47.99737" lon="1.94579">
        <ele>125.282</ele>
        <time>2012-01-29T10:13:19Z</time>
      </trkpt>
      <trkpt lat="47.99725" lon="1.94584">
        <ele>124.618</ele>
        <time>2012-01-29T10:13:24Z</time>
      </trkpt>
      <trkpt lat="47.99698" lon="1.94599">
        <ele>123.158</ele>
        <time>2012-01-29T10:13:36Z</time>
      </trkpt>
      <trkpt lat="47.99678" lon="1.94602">
        <ele>123.667</ele>
        <time>2012-01-29T10:13:44Z</time>
      </trkpt>
      <trkpt lat="47.99663" lon="1.94632">
        <ele>124.401</ele>
        <time>2012-01-29T10:13:56Z</time>
      </trkpt>
      <trkpt lat="47.99638" lon="1.94693">
        <ele>124.356</ele>
        <time>2012-01-29T10:14:11Z</time>
      </trkpt>
      <trkpt lat="47.99622" lon="1.94743">
        <ele>124.492</ele>
        <time>2012-01-29T10:14:22Z</time>
      </trkpt>
      <trkpt lat="47.9961" lon="1.94775">
        <ele>124.298</ele>
        <time>2012-01-29T10:14:29Z</time>
      </trkpt>
      <trkpt lat="47.99593" lon="1.94817">
        <ele>123.975</ele>
        <time>2012-01-29T10:14:39Z</time>
      </trkpt>
      <trkpt lat="47.99573" lon="1.94878">
        <ele>123.693</ele>
        <time>2012-01-29T10:14:55Z</time>
      </trkpt>
      <trkpt lat="47.99549" lon="1.94947">
        <ele>123.553</ele>
        <time>2012-01-29T10:15:11Z</time>
      </trkpt>
      <trkpt lat="47.99533" lon="1.95002">
        <ele>123.463</ele>
        <time>2012-01-29T10:15:25Z</time>
      </trkpt>
      <trkpt lat="47.99533" lon="1.95006">
        <ele>123.463</ele>
        <time>2012-01-29T10:15:26Z</time>
      </trkpt>
      <trkpt lat="47.99519" lon="1.95037">
        <ele>123.646</ele>
        <time>2012-01-29T10:15:34Z</time>
      </trkpt>
      <trkpt lat="47.99515" lon="1.95046">
        <ele>123.381</ele>
        <time>2012-01-29T10:15:37Z</time>
      </trkpt>
      <trkpt lat="47.99501" lon="1.95074">
        <ele>123.494</ele>
        <time>2012-01-29T10:15:48Z</time>
      </trkpt>
      <trkpt lat="47.99495" lon="1.95092">
        <ele>123.693</ele>
        <time>2012-01-29T10:15:53Z</time>
      </trkpt>
      <trkpt lat="47.99483" lon="1.95126">
        <ele>123.571</ele>
        <time>2012-01-29T10:16:05Z</time>
      </trkpt>
      <trkpt lat="47.99476" lon="1.9514">
        <ele>123.316</ele>
        <time>2012-01-29T10:16:10Z</time>
      </trkpt>
      <trkpt lat="47.99457" lon="1.95194">
        <ele>123.804</ele>
        <time>2012-01-29T10:16:26Z</time>
      </trkpt>
      <trkpt lat="47.99447" lon="1.95233">
        <ele>124.016</ele>
        <time>2012-01-29T10:16:37Z</time>
      </trkpt>
      <trkpt lat="47.99427" lon="1.95287">
        <ele>124.329</ele>
        <time>2012-01-29T10:16:54Z</time>
      </trkpt>
      <trkpt lat="47.99395" lon="1.95378">
        <ele>124.08</ele>
        <time>2012-01-29T10:17:13Z</time>
      </trkpt>
      <trkpt lat="47.99363" lon="1.95466">
        <ele>124.612</ele>
        <time>2012-01-29T10:17:32Z</time>
      </trkpt>
      <trkpt lat="47.99342" lon="1.95527">
        <ele>125.048</ele>
        <time>2012-01-29T10:17:47Z</time>
      </trkpt>
      <trkpt lat="47.99314" lon="1.95607">
        <ele>124.619</ele>
        <time>2012-01-29T10:18:06Z</time>
      </trkpt>
      <trkpt lat="47.99296" lon="1.95661">
        <ele>124.854</ele>
        <time>2012-01-29T10:18:20Z</time>
      </trkpt>
      <trkpt lat="47.9929" lon="1.95665">
        <ele>124.992</ele>
        <time>2012-01-29T10:18:24Z</time>
      </trkpt>
      <trkpt lat="47.99226" lon="1.95637">
        <ele>124.594</ele>
        <time>2012-01-29T10:18:42Z</time>
      </trkpt>
      <trkpt lat="47.99128" lon="1.95602">
        <ele>124.178</ele>
        <time>2012-01-29T10:19:08Z</time>
      </trkpt>
      <trkpt lat="47.99114" lon="1.95598">
        <ele>123.676</ele>
        <time>2012-01-29T10:19:12Z</time>
      </trkpt>
      <trkpt lat="47.99113" lon="1.95614">
        <ele>123.851</ele>
        <time>2012-01-29T10:19:18Z</time>
      </trkpt>
      <trkpt lat="47.9911" lon="1.95695">
        <ele>124.723</ele>
        <time>2012-01-29T10:19:34Z</time>
      </trkpt>
      <trkpt lat="47.99105" lon="1.95797">
        <ele>125.437</ele>
        <time>2012-01-29T10:19:55Z</time>
      </trkpt>
      <trkpt lat="47.99098" lon="1.95901">
        <ele>124.932</ele>
        <time>2012-01-29T10:20:14Z</time>
      </trkpt>
      <trkpt lat="47.99097" lon="1.95929">
        <ele>124.365</ele>
        <time>2012-01-29T10:20:23Z</time>
      </trkpt>
      <trkpt lat="47.99093" lon="1.95983">
        <ele>125.044</ele>
        <time>2012-01-29T10:20:37Z</time>
      </trkpt>
      <trkpt lat="47.9909" lon="1.96044">
        <ele>125.09</ele>
        <time>2012-01-29T10:20:51Z</time>
      </trkpt>
      <trkpt lat="47.99089" lon="1.96046">
        <ele>125.024</ele>
        <time>2012-01-29T10:21:07Z</time>
      </trkpt>
      <trkpt lat="47.99089" lon="1.96046">
        <ele>125.001</ele>
        <time>2012-01-29T10:21:21Z</time>
      </trkpt>
      <trkpt lat="47.99089" lon="1.96046">
        <ele>124.994</ele>
        <time>2012-01-29T10:21:22Z</time>
      </trkpt>
      <trkpt lat="47.99088" lon="1.96071">
        <ele>124.872</ele>
        <time>2012-01-29T10:21:32Z</time>
      </trkpt>
      <trkpt lat="47.99088" lon="1.96078">
        <ele>124.726</ele>
        <time>2012-01-29T10:21:36Z</time>
      </trkpt>
      <trkpt lat="47.99087" lon="1.96088">
        <ele>125.018</ele>
        <time>2012-01-29T10:21:40Z</time>
      </trkpt>
      <trkpt lat="47.99084" lon="1.96143">
        <ele>124.694</ele>
        <time>2012-01-29T10:21:53Z</time>
      </trkpt>
      <trkpt lat="47.99079" lon="1.9622">
        <ele>124.55</ele>
        <time>2012-01-29T10:22:07Z</time>
      </trkpt>
      <trkpt lat="47.99076" lon="1.96268">
        <ele>124.334</ele>
        <time>2012-01-29T10:22:18Z</time>
      </trkpt>
      <trkpt lat="47.9907" lon="1.9634">
        <ele>125.584</ele>
        <time>2012-01-29T10:22:34Z</time>
      </trkpt>
      <trkpt lat="47.99064" lon="1.96415">
        <ele>125.642</ele>
        <time>2012-01-29T10:22:51Z</time>
      </trkpt>
      <trkpt lat="47.9906" lon="1.96467">
        <ele>125.77</ele>
        <time>2012-01-29T10:23:05Z</time>
      </trkpt>
      <trkpt lat="47.9906" lon="1.96469">
        <ele>125.614</ele>
        <time>2012-01-29T10:23:08Z</time>
      </trkpt>
      <trkpt lat="47.9906" lon="1.96469">
        <ele>125.846</ele>
        <time>2012-01-29T10:23:11Z</time>
      </trkpt>
      <trkpt lat="47.99044" lon="1.96458">
        <ele>125.835</ele>
        <time>2012-01-29T10:23:24Z</time>
      </trkpt>
      <trkpt lat="47.98999" lon="1.96427">
        <ele>125.983</ele>
        <time>2012-01-29T10:23:40Z</time>
      </trkpt>
      <trkpt lat="47.98948" lon="1.96392">
        <ele>125.085</ele>
        <time>2012-01-29T10:23:57Z</time>
      </trkpt>
      <trkpt lat="47.98906" lon="1.96362">
        <ele>124.458</ele>
        <time>2012-01-29T10:24:11Z</time>
      </trkpt>
      <trkpt lat="47.98868" lon="1.96335">
        <ele>124.449</ele>
        <time>2012-01-29T10:24:24Z</time>
      </trkpt>
      <trkpt lat="47.9885" lon="1.96322">
        <ele>124.465</ele>
        <time>2012-01-29T10:24:31Z</time>
      </trkpt>
      <trkpt lat="47.98845" lon="1.96319">
        <ele>124.127</ele>
        <time>2012-01-29T10:24:37Z</time>
      </trkpt>
      <trkpt lat="47.98827" lon="1.96306">
        <ele>124.473</ele>
        <time>2012-01-29T10:24:50Z</time>
      </trkpt>
      <trkpt lat="47.9882" lon="1.96302">
        <ele>124.279</ele>
        <time>2012-01-29T10:24:53Z</time>
      </trkpt>
      <trkpt lat="47.98791" lon="1.96281">
        <ele>124.498</ele>
        <time>2012-01-29T10:25:03Z</time>
      </trkpt>
      <trkpt lat="47.98789" lon="1.9628">
        <ele>124.088</ele>
        <time>2012-01-29T10:25:04Z</time>
      </trkpt>
      <trkpt lat="47.98758" lon="1.96258">
        <ele>124.478</ele>
        <time>2012-01-29T10:25:17Z</time>
      </trkpt>
      <trkpt lat="47.98754" lon="1.96255">
        <ele>124.458</ele>
        <time>2012-01-29T10:25:19Z</time>
      </trkpt>
      <trkpt lat="47.98731" lon="1.96239">
        <ele>124.924</ele>
        <time>2012-01-29T10:25:31Z</time>
      </trkpt>
      <trkpt lat="47.98685" lon="1.96207">
        <ele>125.217</ele>
        <time>2012-01-29T10:25:47Z</time>
      </trkpt>
      <trkpt lat="47.98637" lon="1.96173">
        <ele>125.53</ele>
        <time>2012-01-29T10:26:01Z</time>
      </trkpt>
      <trkpt lat="47.98629" lon="1.96167">
        <ele>125.106</ele>
        <time>2012-01-29T10:26:03Z</time>
      </trkpt>
      <trkpt lat="47.98618" lon="1.96159">
        <ele>125.108</ele>
        <time>2012-01-29T10:26:06Z</time>
      </trkpt>
      <trkpt lat="47.98568" lon="1.96124">
        <ele>124.902</ele>
        <time>2012-01-29T10:26:20Z</time>
      </trkpt>
      <trkpt lat="47.98536" lon="1.96101">
        <ele>124.734</ele>
        <time>2012-01-29T10:26:28Z</time>
      </trkpt>
      <trkpt lat="47.98526" lon="1.96093">
        <ele>124.4</ele>
        <time>2012-01-29T10:26:32Z</time>
      </trkpt>
      <trkpt lat="47.98505" lon="1.96111">
        <ele>124.364</ele>
        <time>2012-01-29T10:26:35Z</time>
      </trkpt>
      <trkpt lat="47.98436" lon="1.96171">
        <ele>124.851</ele>
        <time>2012-01-29T10:26:53Z</time>
      </trkpt>
      <trkpt lat="47.98346" lon="1.9625">
        <ele>126.489</ele>
        <time>2012-01-29T10:27:18Z</time>
      </trkpt>
      <trkpt lat="47.98251" lon="1.96331">
        <ele>126.509</ele>
        <time>2012-01-29T10:27:43Z</time>
      </trkpt>
      <trkpt lat="47.98135" lon="1.96431">
        <ele>125.445</ele>
        <time>2012-01-29T10:28:10Z</time>
      </trkpt>
      <trkpt lat="47.9806" lon="1.96495">
        <ele>124.922</ele>
        <time>2012-01-29T10:28:28Z</time>
      </trkpt>
      <trkpt lat="47.97952" lon="1.96587">
        <ele>124.732</ele>
        <time>2012-01-29T10:28:53Z</time>
      </trkpt>
      <trkpt lat="47.97866" lon="1.96661">
        <ele>124.508</ele>
        <time>2012-01-29T10:29:14Z</time>
      </trkpt>
      <trkpt lat="47.97778" lon="1.96736">
        <ele>125.293</ele>
        <time>2012-01-29T10:29:37Z</time>
      </trkpt>
      <trkpt lat="47.97697" lon="1.96805">
        <ele>126.275</ele>
        <time>2012-01-29T10:29:59Z</time>
      </trkpt>
      <trkpt lat="47.97689" lon="1.96811">
        <ele>126.026</ele>
        <time>2012-01-29T10:30:01Z</time>
      </trkpt>
      <trkpt lat="47.97602" lon="1.96884">
        <ele>126.223</ele>
        <time>2012-01-29T10:30:23Z</time>
      </trkpt>
      <trkpt lat="47.97552" lon="1.96925">
        <ele>126.15</ele>
        <time>2012-01-29T10:30:36Z</time>
      </trkpt>
      <trkpt lat="47.97513" lon="1.96958">
        <ele>126.364</ele>
        <time>2012-01-29T10:30:49Z</time>
      </trkpt>
      <trkpt lat="47.97481" lon="1.96986">
        <ele>126.71</ele>
        <time>2012-01-29T10:31:04Z</time>
      </trkpt>
      <trkpt lat="47.97493" lon="1.97037">
        <ele>127.069</ele>
        <time>2012-01-29T10:31:13Z</time>
      </trkpt>
      <trkpt lat="47.97526" lon="1.97178">
        <ele>127.105</ele>
        <time>2012-01-29T10:31:32Z</time>
      </trkpt>
      <trkpt lat="47.97581" lon="1.97401">
        <ele>129.486</ele>
        <time>2012-01-29T10:32:04Z</time>
      </trkpt>
      <trkpt lat="47.97591" lon="1.97455">
        <ele>130.68</ele>
        <time>2012-01-29T10:32:13Z</time>
      </trkpt>
      <trkpt lat="47.97609" lon="1.97577">
        <ele>128.427</ele>
        <time>2012-01-29T10:32:28Z</time>
      </trkpt>
      <trkpt lat="47.97641" lon="1.97748">
        <ele>127.714</ele>
        <time>2012-01-29T10:32:48Z</time>
      </trkpt>
      <trkpt lat="47.97675" lon="1.97927">
        <ele>128.494</ele>
        <time>2012-01-29T10:33:11Z</time>
      </trkpt>
      <trkpt lat="47.97704" lon="1.98081">
        <ele>129.94</ele>
        <time>2012-01-29T10:33:32Z</time>
      </trkpt>
      <trkpt lat="47.9771" lon="1.98109">
        <ele>129.839</ele>
        <time>2012-01-29T10:33:36Z</time>
      </trkpt>
      <trkpt lat="47.97687" lon="1.98135">
        <ele>129.934</ele>
        <time>2012-01-29T10:33:43Z</time>
      </trkpt>
      <trkpt lat="47.9764" lon="1.98135">
        <ele>127.827</ele>
        <time>2012-01-29T10:33:56Z</time>
      </trkpt>
      <trkpt lat="47.97609" lon="1.98137">
        <ele>127.432</ele>
        <time>2012-01-29T10:34:10Z</time>
      </trkpt>
      <trkpt lat="47.97563" lon="1.98138">
        <ele>127.271</ele>
        <time>2012-01-29T10:34:25Z</time>
      </trkpt>
      <trkpt lat="47.97528" lon="1.98022">
        <ele>126.587</ele>
        <time>2012-01-29T10:34:37Z</time>
      </trkpt>
      <trkpt lat="47.97509" lon="1.97999">
        <ele>126.486</ele>
        <time>2012-01-29T10:34:43Z</time>
      </trkpt>
      <trkpt lat="47.97488" lon="1.97976">
        <ele>126.526</ele>
        <time>2012-01-29T10:34:49Z</time>
      </trkpt>
      <trkpt lat="47.97473" lon="1.97955">
        <ele>126.422</ele>
        <time>2012-01-29T10:34:54Z</time>
      </trkpt>
      <trkpt lat="47.9746" lon="1.97943">
        <ele>125.753</ele>
        <time>2012-01-29T10:34:58Z</time>
      </trkpt>
      <trkpt lat="47.97425" lon="1.97908">
        <ele>124.461</ele>
        <time>2012-01-29T10:35:08Z</time>
      </trkpt>
      <trkpt lat="47.97386" lon="1.9787">
        <ele>123.085</ele>
        <time>2012-01-29T10:35:19Z</time>
      </trkpt>
      <trkpt lat="47.97358" lon="1.9784">
        <ele>122.778</ele>
        <time>2012-01-29T10:35:27Z</time>
      </trkpt>
      <trkpt lat="47.97332" lon="1.97809">
        <ele>122.439</ele>
        <time>2012-01-29T10:35:35Z</time>
      </trkpt>
      <trkpt lat="47.97297" lon="1.97761">
        <ele>122.226</ele>
        <time>2012-01-29T10:35:48Z</time>
      </trkpt>
      <trkpt lat="47.97277" lon="1.97732">
        <ele>121.972</ele>
        <time>2012-01-29T10:35:59Z</time>
      </trkpt>
      <trkpt lat="47.97275" lon="1.9773">
        <ele>121.974</ele>
        <time>2012-01-29T10:36:00Z</time>
      </trkpt>
      <trkpt lat="47.97239" lon="1.97684">
        <ele>122.582</ele>
        <time>2012-01-29T10:36:17Z</time>
      </trkpt>
      <trkpt lat="47.97214" lon="1.97658">
        <ele>122.813</ele>
        <time>2012-01-29T10:36:29Z</time>
      </trkpt>
      <trkpt lat="47.97213" lon="1.97657">
        <ele>122.814</ele>
        <time>2012-01-29T10:36:30Z</time>
      </trkpt>
      <trkpt lat="47.97205" lon="1.97653">
        <ele>123.086</ele>
        <time>2012-01-29T10:36:34Z</time>
      </trkpt>
      <trkpt lat="47.97188" lon="1.97618">
        <ele>122.934</ele>
        <time>2012-01-29T10:36:46Z</time>
      </trkpt>
      <trkpt lat="47.97168" lon="1.97589">
        <ele>123.383</ele>
        <time>2012-01-29T10:36:55Z</time>
      </trkpt>
      <trkpt lat="47.97138" lon="1.97536">
        <ele>124.015</ele>
        <time>2012-01-29T10:37:10Z</time>
      </trkpt>
      <trkpt lat="47.97115" lon="1.97488">
        <ele>124.736</ele>
        <time>2012-01-29T10:37:25Z</time>
      </trkpt>
      <trkpt lat="47.97082" lon="1.97419">
        <ele>125.693</ele>
        <time>2012-01-29T10:37:45Z</time>
      </trkpt>
      <trkpt lat="47.97045" lon="1.97352">
        <ele>126.525</ele>
        <time>2012-01-29T10:38:06Z</time>
      </trkpt>
      <trkpt lat="47.97035" lon="1.97334">
        <ele>126.667</ele>
        <time>2012-01-29T10:38:12Z</time>
      </trkpt>
      <trkpt lat="47.97015" lon="1.97291">
        <ele>126.413</ele>
        <time>2012-01-29T10:38:27Z</time>
      </trkpt>
      <trkpt lat="47.96985" lon="1.97249">
        <ele>125.921</ele>
        <time>2012-01-29T10:38:42Z</time>
      </trkpt>
      <trkpt lat="47.96958" lon="1.9722">
        <ele>125.378</ele>
        <time>2012-01-29T10:38:55Z</time>
      </trkpt>
      <trkpt lat="47.96948" lon="1.9723">
        <ele>125.518</ele>
        <time>2012-01-29T10:38:59Z</time>
      </trkpt>
      <trkpt lat="47.96902" lon="1.97306">
        <ele>125.556</ele>
        <time>2012-01-29T10:39:18Z</time>
      </trkpt>
      <trkpt lat="47.96858" lon="1.97378">
        <ele>125.946</ele>
        <time>2012-01-29T10:39:34Z</time>
      </trkpt>
      <trkpt lat="47.96801" lon="1.97451">
        <ele>125.103</ele>
        <time>2012-01-29T10:39:52Z</time>
      </trkpt>
      <trkpt lat="47.9673" lon="1.97505">
        <ele>124.272</ele>
        <time>2012-01-29T10:40:10Z</time>
      </trkpt>
      <trkpt lat="47.96689" lon="1.97531">
        <ele>123.79</ele>
        <time>2012-01-29T10:40:23Z</time>
      </trkpt>
      <trkpt lat="47.9668" lon="1.97519">
        <ele>123.701</ele>
        <time>2012-01-29T10:40:29Z</time>
      </trkpt>
      <trkpt lat="47.96668" lon="1.97481">
        <ele>122.276</ele>
        <time>2012-01-29T10:40:38Z</time>
      </trkpt>
      <trkpt lat="47.96663" lon="1.97466">
        <ele>121.659</ele>
        <time>2012-01-29T10:40:46Z</time>
      </trkpt>
      <trkpt lat="47.9663" lon="1.97519">
        <ele>121.108</ele>
        <time>2012-01-29T10:40:48Z</time>
      </trkpt>
      <trkpt lat="47.96613" lon="1.97513">
        <ele>120.661</ele>
        <time>2012-01-29T10:40:52Z</time>
      </trkpt>
      <trkpt lat="47.9652" lon="1.97479">
        <ele>119.125</ele>
        <time>2012-01-29T10:41:13Z</time>
      </trkpt>
      <trkpt lat="47.9643" lon="1.97454">
        <ele>119.568</ele>
        <time>2012-01-29T10:41:33Z</time>
      </trkpt>
      <trkpt lat="47.96333" lon="1.97477">
        <ele>119.794</ele>
        <time>2012-01-29T10:41:52Z</time>
      </trkpt>
      <trkpt lat="47.96197" lon="1.97514">
        <ele>116.958</ele>
        <time>2012-01-29T10:42:14Z</time>
      </trkpt>
      <trkpt lat="47.96114" lon="1.97541">
        <ele>115.322</ele>
        <time>2012-01-29T10:42:27Z</time>
      </trkpt>
      <trkpt lat="47.96085" lon="1.97547">
        <ele>115.305</ele>
        <time>2012-01-29T10:42:32Z</time>
      </trkpt>
      <trkpt lat="47.96067" lon="1.97554">
        <ele>115.434</ele>
        <time>2012-01-29T10:42:36Z</time>
      </trkpt>
      <trkpt lat="47.95993" lon="1.97617">
        <ele>113.507</ele>
        <time>2012-01-29T10:42:48Z</time>
      </trkpt>
      <trkpt lat="47.9595" lon="1.97629">
        <ele>112.555</ele>
        <time>2012-01-29T10:42:55Z</time>
      </trkpt>
      <trkpt lat="47.95916" lon="1.97638">
        <ele>111.861</ele>
        <time>2012-01-29T10:43:00Z</time>
      </trkpt>
      <trkpt lat="47.95897" lon="1.9764">
        <ele>111.527</ele>
        <time>2012-01-29T10:43:03Z</time>
      </trkpt>
      <trkpt lat="47.95879" lon="1.97634">
        <ele>110.874</ele>
        <time>2012-01-29T10:43:06Z</time>
      </trkpt>
      <trkpt lat="47.95848" lon="1.9761">
        <ele>110.716</ele>
        <time>2012-01-29T10:43:12Z</time>
      </trkpt>
      <trkpt lat="47.95829" lon="1.97595">
        <ele>111.104</ele>
        <time>2012-01-29T10:43:16Z</time>
      </trkpt>
      <trkpt lat="47.95797" lon="1.97595">
        <ele>111.628</ele>
        <time>2012-01-29T10:43:22Z</time>
      </trkpt>
      <trkpt lat="47.95703" lon="1.97644">
        <ele>113.036</ele>
        <time>2012-01-29T10:43:41Z</time>
      </trkpt>
      <trkpt lat="47.95668" lon="1.97651">
        <ele>114.238</ele>
        <time>2012-01-29T10:43:52Z</time>
      </trkpt>
      <trkpt lat="47.95659" lon="1.97624">
        <ele>113.736</ele>
        <time>2012-01-29T10:43:59Z</time>
      </trkpt>
      <trkpt lat="47.95659" lon="1.97616">
        <ele>113.173</ele>
        <time>2012-01-29T10:44:09Z</time>
      </trkpt>
      <trkpt lat="47.95659" lon="1.97611">
        <ele>113.171</ele>
        <time>2012-01-29T10:44:10Z</time>
      </trkpt>
      <trkpt lat="47.95659" lon="1.976">
        <ele>113.301</ele>
        <time>2012-01-29T10:44:14Z</time>
      </trkpt>
      <trkpt lat="47.95659" lon="1.97523">
        <ele>113.317</ele>
        <time>2012-01-29T10:44:28Z</time>
      </trkpt>
      <trkpt lat="47.95659" lon="1.97438">
        <ele>113.48</ele>
        <time>2012-01-29T10:44:43Z</time>
      </trkpt>
      <trkpt lat="47.95659" lon="1.97325">
        <ele>114.056</ele>
        <time>2012-01-29T10:45:04Z</time>
      </trkpt>
      <trkpt lat="47.95659" lon="1.97232">
        <ele>113.862</ele>
        <time>2012-01-29T10:45:23Z</time>
      </trkpt>
      <trkpt lat="47.95644" lon="1.97186">
        <ele>113.739</ele>
        <time>2012-01-29T10:45:33Z</time>
      </trkpt>
      <trkpt lat="47.956" lon="1.97091">
        <ele>115.104</ele>
        <time>2012-01-29T10:45:54Z</time>
      </trkpt>
      <trkpt lat="47.95556" lon="1.96996">
        <ele>115.399</ele>
        <time>2012-01-29T10:46:14Z</time>
      </trkpt>
      <trkpt lat="47.95524" lon="1.96928">
        <ele>115.99</ele>
        <time>2012-01-29T10:46:30Z</time>
      </trkpt>
      <trkpt lat="47.95481" lon="1.96837">
        <ele>116.895</ele>
        <time>2012-01-29T10:46:49Z</time>
      </trkpt>
      <trkpt lat="47.95445" lon="1.96759">
        <ele>118.364</ele>
        <time>2012-01-29T10:47:06Z</time>
      </trkpt>
      <trkpt lat="47.95421" lon="1.96707">
        <ele>119.811</ele>
        <time>2012-01-29T10:47:18Z</time>
      </trkpt>
      <trkpt lat="47.9539" lon="1.96638">
        <ele>120.385</ele>
        <time>2012-01-29T10:47:33Z</time>
      </trkpt>
      <trkpt lat="47.95379" lon="1.96614">
        <ele>120.26</ele>
        <time>2012-01-29T10:47:38Z</time>
      </trkpt>
      <trkpt lat="47.95315" lon="1.96475">
        <ele>117.885</ele>
        <time>2012-01-29T10:48:00Z</time>
      </trkpt>
      <trkpt lat="47.9527" lon="1.96377">
        <ele>117.126</ele>
        <time>2012-01-29T10:48:18Z</time>
      </trkpt>
      <trkpt lat="47.95267" lon="1.96372">
        <ele>116.511</ele>
        <time>2012-01-29T10:48:30Z</time>
      </trkpt>
      <trkpt lat="47.95267" lon="1.96372">
        <ele>116.42</ele>
        <time>2012-01-29T10:49:19Z</time>
      </trkpt>
      <trkpt lat="47.95267" lon="1.96372">
        <ele>118.69</ele>
        <time>2012-01-29T10:49:59Z</time>
      </trkpt>
      <trkpt lat="47.95267" lon="1.96372">
        <ele>117.236</ele>
        <time>2012-01-29T10:50:07Z</time>
      </trkpt>
      <trkpt lat="47.95267" lon="1.96372">
        <ele>118.888</ele>
        <time>2012-01-29T10:50:09Z</time>
      </trkpt>
      <trkpt lat="47.95254" lon="1.96344">
        <ele>116.922</ele>
        <time>2012-01-29T10:50:19Z</time>
      </trkpt>
      <trkpt lat="47.95247" lon="1.96329">
        <ele>115.357</ele>
        <time>2012-01-29T10:50:22Z</time>
      </trkpt>
      <trkpt lat="47.95187" lon="1.96197">
        <ele>114.616</ele>
        <time>2012-01-29T10:50:42Z</time>
      </trkpt>
      <trkpt lat="47.95174" lon="1.96168">
        <ele>113.247</ele>
        <time>2012-01-29T10:50:51Z</time>
      </trkpt>
      <trkpt lat="47.95174" lon="1.96168">
        <ele>113.457</ele>
        <time>2012-01-29T10:51:13Z</time>
      </trkpt>
      <trkpt lat="47.95161" lon="1.9614">
        <ele>112.957</ele>
        <time>2012-01-29T10:51:32Z</time>
      </trkpt>
      <trkpt lat="47.95137" lon="1.96089">
        <ele>113.164</ele>
        <time>2012-01-29T10:51:41Z</time>
      </trkpt>
      <trkpt lat="47.95129" lon="1.96051">
        <ele>114.455</ele>
        <time>2012-01-29T10:51:46Z</time>
      </trkpt>
      <trkpt lat="47.95114" lon="1.9589">
        <ele>115.492</ele>
        <time>2012-01-29T10:52:08Z</time>
      </trkpt>
      <trkpt lat="47.95099" lon="1.95728">
        <ele>116.895</ele>
        <time>2012-01-29T10:52:31Z</time>
      </trkpt>
      <trkpt lat="47.9508" lon="1.95538">
        <ele>116.896</ele>
        <time>2012-01-29T10:52:59Z</time>
      </trkpt>
      <trkpt lat="47.95079" lon="1.95522">
        <ele>119.587</ele>
        <time>2012-01-29T10:53:02Z</time>
      </trkpt>
      <trkpt lat="47.95078" lon="1.95513">
        <ele>118.253</ele>
        <time>2012-01-29T10:53:04Z</time>
      </trkpt>
      <trkpt lat="47.95074" lon="1.95447">
        <ele>117.012</ele>
        <time>2012-01-29T10:53:17Z</time>
      </trkpt>
      <trkpt lat="47.95073" lon="1.95446">
        <ele>117.009</ele>
        <time>2012-01-29T10:53:18Z</time>
      </trkpt>
      <trkpt lat="47.95065" lon="1.95408">
        <ele>119.346</ele>
        <time>2012-01-29T10:57:39Z</time>
      </trkpt>
      <trkpt lat="47.95063" lon="1.95365">
        <ele>119.327</ele>
        <time>2012-01-29T10:57:52Z</time>
      </trkpt>
      <trkpt lat="47.95053" lon="1.95264">
        <ele>118.586</ele>
        <time>2012-01-29T10:58:12Z</time>
      </trkpt>
      <trkpt lat="47.95052" lon="1.95256">
        <ele>118.538</ele>
        <time>2012-01-29T10:58:23Z</time>
      </trkpt>
      <trkpt lat="47.95052" lon="1.95255">
        <ele>119.695</ele>
        <time>2012-01-29T10:59:49Z</time>
      </trkpt>
      <trkpt lat="47.95039" lon="1.95243">
        <ele>119.371</ele>
        <time>2012-01-29T10:59:55Z</time>
      </trkpt>
      <trkpt lat="47.94998" lon="1.95235">
        <ele>118.312</ele>
        <time>2012-01-29T11:00:04Z</time>
      </trkpt>
      <trkpt lat="47.94987" lon="1.95232">
        <ele>117.008</ele>
        <time>2012-01-29T11:00:06Z</time>
      </trkpt>
      <trkpt lat="47.94875" lon="1.95198">
        <ele>114.772</ele>
        <time>2012-01-29T11:00:25Z</time>
      </trkpt>
      <trkpt lat="47.94775" lon="1.95102">
        <ele>113.769</ele>
        <time>2012-01-29T11:00:44Z</time>
      </trkpt>
      <trkpt lat="47.94729" lon="1.95034">
        <ele>115.907</ele>
        <time>2012-01-29T11:00:57Z</time>
      </trkpt>
      <trkpt lat="47.94726" lon="1.9503">
        <ele>115.908</ele>
        <time>2012-01-29T11:00:58Z</time>
      </trkpt>
      <trkpt lat="47.94691" lon="1.94983">
        <ele>118.971</ele>
        <time>2012-01-29T11:01:08Z</time>
      </trkpt>
      <trkpt lat="47.94687" lon="1.94977">
        <ele>118.972</ele>
        <time>2012-01-29T11:01:09Z</time>
      </trkpt>
      <trkpt lat="47.9462" lon="1.94876">
        <ele>119.406</ele>
        <time>2012-01-29T11:01:28Z</time>
      </trkpt>
      <trkpt lat="47.94568" lon="1.94767">
        <ele>120.503</ele>
        <time>2012-01-29T11:01:45Z</time>
      </trkpt>
      <trkpt lat="47.94558" lon="1.9475">
        <ele>121.323</ele>
        <time>2012-01-29T11:01:48Z</time>
      </trkpt>
      <trkpt lat="47.945" lon="1.94659">
        <ele>119.721</ele>
        <time>2012-01-29T11:02:05Z</time>
      </trkpt>
      <trkpt lat="47.94497" lon="1.94654">
        <ele>120.861</ele>
        <time>2012-01-29T11:02:06Z</time>
      </trkpt>
      <trkpt lat="47.94484" lon="1.94635">
        <ele>120.661</ele>
        <time>2012-01-29T11:02:10Z</time>
      </trkpt>
      <trkpt lat="47.94478" lon="1.94626">
        <ele>121.746</ele>
        <time>2012-01-29T11:02:12Z</time>
      </trkpt>
      <trkpt lat="47.94471" lon="1.94616">
        <ele>120.919</ele>
        <time>2012-01-29T11:02:14Z</time>
      </trkpt>
      <trkpt lat="47.94452" lon="1.94588">
        <ele>120.956</ele>
        <time>2012-01-29T11:02:19Z</time>
      </trkpt>
      <trkpt lat="47.94436" lon="1.94566">
        <ele>121.033</ele>
        <time>2012-01-29T11:02:23Z</time>
      </trkpt>
      <trkpt lat="47.94385" lon="1.94492">
        <ele>119.364</ele>
        <time>2012-01-29T11:02:36Z</time>
      </trkpt>
      <trkpt lat="47.94352" lon="1.94454">
        <ele>118.73</ele>
        <time>2012-01-29T11:02:42Z</time>
      </trkpt>
      <trkpt lat="47.94334" lon="1.94433">
        <ele>118.522</ele>
        <time>2012-01-29T11:02:47Z</time>
      </trkpt>
      <trkpt lat="47.94294" lon="1.94419">
        <ele>115.777</ele>
        <time>2012-01-29T11:02:52Z</time>
      </trkpt>
      <trkpt lat="47.94297" lon="1.94378">
        <ele>116.292</ele>
        <time>2012-01-29T11:02:57Z</time>
      </trkpt>
      <trkpt lat="47.94279" lon="1.94355">
        <ele>116.061</ele>
        <time>2012-01-29T11:03:02Z</time>
      </trkpt>
      <trkpt lat="47.94268" lon="1.94334">
        <ele>115.607</ele>
        <time>2012-01-29T11:03:05Z</time>
      </trkpt>
      <trkpt lat="47.94256" lon="1.94295">
        <ele>117.325</ele>
        <time>2012-01-29T11:03:10Z</time>
      </trkpt>
      <trkpt lat="47.94241" lon="1.94138">
        <ele>115.77</ele>
        <time>2012-01-29T11:03:28Z</time>
      </trkpt>
      <trkpt lat="47.94234" lon="1.93854">
        <ele>116.616</ele>
        <time>2012-01-29T11:04:00Z</time>
      </trkpt>
      <trkpt lat="47.94241" lon="1.93667">
        <ele>116.646</ele>
        <time>2012-01-29T11:04:20Z</time>
      </trkpt>
      <trkpt lat="47.94243" lon="1.93648">
        <ele>116.565</ele>
        <time>2012-01-29T11:04:22Z</time>
      </trkpt>
      <trkpt lat="47.94249" lon="1.93614">
        <ele>116.715</ele>
        <time>2012-01-29T11:04:26Z</time>
      </trkpt>
      <trkpt lat="47.94253" lon="1.93593">
        <ele>116.94</ele>
        <time>2012-01-29T11:04:29Z</time>
      </trkpt>
      <trkpt lat="47.94294" lon="1.93433">
        <ele>117.805</ele>
        <time>2012-01-29T11:04:49Z</time>
      </trkpt>
      <trkpt lat="47.94306" lon="1.93377">
        <ele>117.608</ele>
        <time>2012-01-29T11:04:56Z</time>
      </trkpt>
      <trkpt lat="47.94311" lon="1.93355">
        <ele>117.819</ele>
        <time>2012-01-29T11:04:59Z</time>
      </trkpt>
      <trkpt lat="47.94345" lon="1.93196">
        <ele>118.634</ele>
        <time>2012-01-29T11:05:20Z</time>
      </trkpt>
      <trkpt lat="47.94364" lon="1.93108">
        <ele>118.405</ele>
        <time>2012-01-29T11:05:32Z</time>
      </trkpt>
      <trkpt lat="47.94369" lon="1.93085">
        <ele>118.809</ele>
        <time>2012-01-29T11:05:36Z</time>
      </trkpt>
      <trkpt lat="47.94373" lon="1.93066">
        <ele>118.688</ele>
        <time>2012-01-29T11:05:40Z</time>
      </trkpt>
      <trkpt lat="47.94393" lon="1.92971">
        <ele>118.553</ele>
        <time>2012-01-29T11:05:54Z</time>
      </trkpt>
      <trkpt lat="47.944" lon="1.92936">
        <ele>118.929</ele>
        <time>2012-01-29T11:05:59Z</time>
      </trkpt>
      <trkpt lat="47.94403" lon="1.92917">
        <ele>118.878</ele>
        <time>2012-01-29T11:06:03Z</time>
      </trkpt>
      <trkpt lat="47.94406" lon="1.92898">
        <ele>119.039</ele>
        <time>2012-01-29T11:06:07Z</time>
      </trkpt>
      <trkpt lat="47.94422" lon="1.92802">
        <ele>119.338</ele>
        <time>2012-01-29T11:06:22Z</time>
      </trkpt>
      <trkpt lat="47.94423" lon="1.92748">
        <ele>118.635</ele>
        <time>2012-01-29T11:09:07Z</time>
      </trkpt>
      <trkpt lat="47.94377" lon="1.92713">
        <ele>117.019</ele>
        <time>2012-01-29T11:09:16Z</time>
      </trkpt>
      <trkpt lat="47.94366" lon="1.92709">
        <ele>118.793</ele>
        <time>2012-01-29T11:09:18Z</time>
      </trkpt>
      <trkpt lat="47.94312" lon="1.92681">
        <ele>118.756</ele>
        <time>2012-01-29T11:09:29Z</time>
      </trkpt>
      <trkpt lat="47.94284" lon="1.92614">
        <ele>120.646</ele>
        <time>2012-01-29T11:09:39Z</time>
      </trkpt>
      <trkpt lat="47.94289" lon="1.92593">
        <ele>120.781</ele>
        <time>2012-01-29T11:09:42Z</time>
      </trkpt>
      <trkpt lat="47.94341" lon="1.92404">
        <ele>121.945</ele>
        <time>2012-01-29T11:10:09Z</time>
      </trkpt>
      <trkpt lat="47.94343" lon="1.92396">
        <ele>121.408</ele>
        <time>2012-01-29T11:10:10Z</time>
      </trkpt>
      <trkpt lat="47.94345" lon="1.92273">
        <ele>120.896</ele>
        <time>2012-01-29T11:10:26Z</time>
      </trkpt>
      <trkpt lat="47.94338" lon="1.92145">
        <ele>122.437</ele>
        <time>2012-01-29T11:10:43Z</time>
      </trkpt>
      <trkpt lat="47.94337" lon="1.92125">
        <ele>121.135</ele>
        <time>2012-01-29T11:10:46Z</time>
      </trkpt>
      <trkpt lat="47.94351" lon="1.92073">
        <ele>120.841</ele>
        <time>2012-01-29T11:10:55Z</time>
      </trkpt>
      <trkpt lat="47.94371" lon="1.92074">
        <ele>120.794</ele>
        <time>2012-01-29T11:10:57Z</time>
      </trkpt>
      <trkpt lat="47.94491" lon="1.92112">
        <ele>122.708</ele>
        <time>2012-01-29T11:11:22Z</time>
      </trkpt>
      <trkpt lat="47.94501" lon="1.92115">
        <ele>122.75</ele>
        <time>2012-01-29T11:11:24Z</time>
      </trkpt>
      <trkpt lat="47.9452" lon="1.9212">
        <ele>122.75</ele>
        <time>2012-01-29T11:11:28Z</time>
      </trkpt>
      <trkpt lat="47.94603" lon="1.92136">
        <ele>123.189</ele>
        <time>2012-01-29T11:11:46Z</time>
      </trkpt>
      <trkpt lat="47.94695" lon="1.92144">
        <ele>123.279</ele>
        <time>2012-01-29T11:12:06Z</time>
      </trkpt>
      <trkpt lat="47.94819" lon="1.92149">
        <ele>123.576</ele>
        <time>2012-01-29T11:12:32Z</time>
      </trkpt>
      <trkpt lat="47.94914" lon="1.92136">
        <ele>123.172</ele>
        <time>2012-01-29T11:12:52Z</time>
      </trkpt>
      <trkpt lat="47.94947" lon="1.9213">
        <ele>122.711</ele>
        <time>2012-01-29T11:13:01Z</time>
      </trkpt>
      <trkpt lat="47.95035" lon="1.92115">
        <ele>121.934</ele>
        <time>2012-01-29T11:13:18Z</time>
      </trkpt>
      <trkpt lat="47.9504" lon="1.92115">
        <ele>121.931</ele>
        <time>2012-01-29T11:13:19Z</time>
      </trkpt>
      <trkpt lat="47.95068" lon="1.92115">
        <ele>120.835</ele>
        <time>2012-01-29T11:13:25Z</time>
      </trkpt>
      <trkpt lat="47.95083" lon="1.92115">
        <ele>119.895</ele>
        <time>2012-01-29T11:13:34Z</time>
      </trkpt>
      <trkpt lat="47.95083" lon="1.92107">
        <ele>121.455</ele>
        <time>2012-01-29T11:13:37Z</time>
      </trkpt>
      <trkpt lat="47.95084" lon="1.92098">
        <ele>121.411</ele>
        <time>2012-01-29T11:13:39Z</time>
      </trkpt>
      <trkpt lat="47.95086" lon="1.92087">
        <ele>121.343</ele>
        <time>2012-01-29T11:13:41Z</time>
      </trkpt>
      <trkpt lat="47.95102" lon="1.91985">
        <ele>122.117</ele>
        <time>2012-01-29T11:13:55Z</time>
      </trkpt>
      <trkpt lat="47.95128" lon="1.91836">
        <ele>121.976</ele>
        <time>2012-01-29T11:14:15Z</time>
      </trkpt>
      <trkpt lat="47.95142" lon="1.91755">
        <ele>121.775</ele>
        <time>2012-01-29T11:14:26Z</time>
      </trkpt>
      <trkpt lat="47.95171" lon="1.91723">
        <ele>121.049</ele>
        <time>2012-01-29T11:14:34Z</time>
      </trkpt>
      <trkpt lat="47.95223" lon="1.91718">
        <ele>121.145</ele>
        <time>2012-01-29T11:14:44Z</time>
      </trkpt>
      <trkpt lat="47.95256" lon="1.91679">
        <ele>121.264</ele>
        <time>2012-01-29T11:14:53Z</time>
      </trkpt>
      <trkpt lat="47.95257" lon="1.91656">
        <ele>120.638</ele>
        <time>2012-01-29T11:14:56Z</time>
      </trkpt>
      <trkpt lat="47.95255" lon="1.91606">
        <ele>120.338</ele>
        <time>2012-01-29T11:15:02Z</time>
      </trkpt>
      <trkpt lat="47.95251" lon="1.91398">
        <ele>121.771</ele>
        <time>2012-01-29T11:15:28Z</time>
      </trkpt>
      <trkpt lat="47.95283" lon="1.9134">
        <ele>121.825</ele>
        <time>2012-01-29T11:15:37Z</time>
      </trkpt>
      <trkpt lat="47.95285" lon="1.91341">
        <ele>121.56</ele>
        <time>2012-01-29T11:15:38Z</time>
      </trkpt>
      <trkpt lat="47.95299" lon="1.91341">
        <ele>121.759</ele>
        <time>2012-01-29T11:15:41Z</time>
      </trkpt>
      <trkpt lat="47.95384" lon="1.9132">
        <ele>120.704</ele>
        <time>2012-01-29T11:15:57Z</time>
      </trkpt>
      <trkpt lat="47.95402" lon="1.91303">
        <ele>121.097</ele>
        <time>2012-01-29T11:16:01Z</time>
      </trkpt>
      <trkpt lat="47.95489" lon="1.9118">
        <ele>120.382</ele>
        <time>2012-01-29T11:16:23Z</time>
      </trkpt>
      <trkpt lat="47.95556" lon="1.91058">
        <ele>120.721</ele>
        <time>2012-01-29T11:16:42Z</time>
      </trkpt>
      <trkpt lat="47.95577" lon="1.90911">
        <ele>121.12</ele>
        <time>2012-01-29T11:17:01Z</time>
      </trkpt>
      <trkpt lat="47.95588" lon="1.90733">
        <ele>123.363</ele>
        <time>2012-01-29T11:17:26Z</time>
      </trkpt>
      <trkpt lat="47.95599" lon="1.90596">
        <ele>124.086</ele>
        <time>2012-01-29T11:17:45Z</time>
      </trkpt>
      <trkpt lat="47.95635" lon="1.90463">
        <ele>123.754</ele>
        <time>2012-01-29T11:18:03Z</time>
      </trkpt>
      <trkpt lat="47.9566" lon="1.90388">
        <ele>122.484</ele>
        <time>2012-01-29T11:18:13Z</time>
      </trkpt>
      <trkpt lat="47.95692" lon="1.90296">
        <ele>122.498</ele>
        <time>2012-01-29T11:18:25Z</time>
      </trkpt>
      <trkpt lat="47.95722" lon="1.90158">
        <ele>120.926</ele>
        <time>2012-01-29T11:18:42Z</time>
      </trkpt>
      <trkpt lat="47.95723" lon="1.9015">
        <ele>121.183</ele>
        <time>2012-01-29T11:18:43Z</time>
      </trkpt>
      <trkpt lat="47.95732" lon="1.90094">
        <ele>121.077</ele>
        <time>2012-01-29T11:18:50Z</time>
      </trkpt>
      <trkpt lat="47.95738" lon="1.90039">
        <ele>120.817</ele>
        <time>2012-01-29T11:18:57Z</time>
      </trkpt>
      <trkpt lat="47.95739" lon="1.90015">
        <ele>120.821</ele>
        <time>2012-01-29T11:19:00Z</time>
      </trkpt>
      <trkpt lat="47.95743" lon="1.89866">
        <ele>120.02</ele>
        <time>2012-01-29T11:19:18Z</time>
      </trkpt>
      <trkpt lat="47.95744" lon="1.89833">
        <ele>119.646</ele>
        <time>2012-01-29T11:19:22Z</time>
      </trkpt>
      <trkpt lat="47.95747" lon="1.89801">
        <ele>119.657</ele>
        <time>2012-01-29T11:19:26Z</time>
      </trkpt>
      <trkpt lat="47.9575" lon="1.89776">
        <ele>119.553</ele>
        <time>2012-01-29T11:19:29Z</time>
      </trkpt>
      <trkpt lat="47.95753" lon="1.8973">
        <ele>120</ele>
        <time>2012-01-29T11:19:35Z</time>
      </trkpt>
      <trkpt lat="47.95753" lon="1.89698">
        <ele>119.898</ele>
        <time>2012-01-29T11:19:39Z</time>
      </trkpt>
      <trkpt lat="47.95753" lon="1.89674">
        <ele>120.052</ele>
        <time>2012-01-29T11:19:42Z</time>
      </trkpt>
      <trkpt lat="47.95752" lon="1.89637">
        <ele>119.989</ele>
        <time>2012-01-29T11:19:47Z</time>
      </trkpt>
      <trkpt lat="47.95744" lon="1.89497">
        <ele>120.519</ele>
        <time>2012-01-29T11:20:07Z</time>
      </trkpt>
      <trkpt lat="47.95743" lon="1.89457">
        <ele>120.643</ele>
        <time>2012-01-29T11:20:13Z</time>
      </trkpt>
      <trkpt lat="47.95765" lon="1.89415">
        <ele>120.676</ele>
        <time>2012-01-29T11:20:20Z</time>
      </trkpt>
      <trkpt lat="47.95833" lon="1.8939">
        <ele>122.079</ele>
        <time>2012-01-29T11:20:37Z</time>
      </trkpt>
      <trkpt lat="47.95857" lon="1.89379">
        <ele>121.377</ele>
        <time>2012-01-29T11:20:45Z</time>
      </trkpt>
    </trkseg>
  </trk>
</gpx>